<?xml version="1.0" encoding="UTF-8" standalone="no" ?>
<gpx xmlns="http://www.topografix.com/GPX/1/1" xmlns:xsi="http://www.w3.org/2001/XMLSchema-instance" xsi:schemaLocation="http://www.topografix.com/GPX/1/1 http://www.topografix.com/GPX/1/1/gpx.xsd" version="1.1" creator="VisuGPX - https://www.visugpx.com">
  <metadata>
    <name>Creuzier riboulet </name>
    <desc><![CDATA[Sortie au depart de creuzier via le stade du vernet,le 21 06 2014
quelques passages a pieds en raison d arbres couchés sous les barlets km 38 sinon ras.]]></desc>
  </metadata>
  <trk>
    <name><![CDATA[2014-06-21 12:17]]></name>
    <desc><![CDATA[<h1>OruxMaps</h1><br /><hr align="center" width="480" style="height: 2px; width: 517px"/><h2>Nom: 2014-06-21 12:17</h2><br /><p>Temps de départ: 06/21/2014 12:23</p><p>Temps d'arrivée: 06/21/2014 19:22</p><p>Distance: 65,3 km (06:58)</p><p>Temps déplacement: 04:19</p><p>Vitesse moyenne: 9,4 km/h</p><p>Vitesse moyenne: 15,1 km/h</p><p>Vitess Max.: 52,3 km/h</p><p>Altitude minimale: 272 m</p><p>Altitude maximale: 601 m</p><p>Vitesse d'élévation: 433,8 m/h</p><p>Vitesse de descente: -859,7 m/h</p><p>Gain Altitude: 1759 m</p><p>Perte Altitude: -1753 m</p><p>Temps d'élévation: 04:03</p><p>Temps de descente: 02:02</p><hr align="center" width="480" style="height: 2px; width: 517px"/>]]></desc>
    <trkseg>
      <trkpt lat="46.17049" lon="3.43151">
        <ele>303.55</ele>
        <time>2014-06-21T10:23:59Z</time>
      </trkpt>
      <trkpt lat="46.17118" lon="3.43188">
        <ele>321.55</ele>
        <time>2014-06-21T10:24:49Z</time>
      </trkpt>
      <trkpt lat="46.1718" lon="3.43241">
        <ele>322.55</ele>
        <time>2014-06-21T10:25:15Z</time>
      </trkpt>
      <trkpt lat="46.1724" lon="3.43306">
        <ele>323.52</ele>
        <time>2014-06-21T10:25:38Z</time>
      </trkpt>
      <trkpt lat="46.17303" lon="3.43368">
        <ele>324.54</ele>
        <time>2014-06-21T10:25:57Z</time>
      </trkpt>
      <trkpt lat="46.17364" lon="3.43424">
        <ele>325.3</ele>
        <time>2014-06-21T10:26:16Z</time>
      </trkpt>
      <trkpt lat="46.17421" lon="3.43492">
        <ele>325.55</ele>
        <time>2014-06-21T10:26:36Z</time>
      </trkpt>
      <trkpt lat="46.17444" lon="3.436">
        <ele>331.81</ele>
        <time>2014-06-21T10:26:54Z</time>
      </trkpt>
      <trkpt lat="46.17429" lon="3.43705">
        <ele>335.29</ele>
        <time>2014-06-21T10:27:04Z</time>
      </trkpt>
      <trkpt lat="46.17375" lon="3.43778">
        <ele>326.99</ele>
        <time>2014-06-21T10:27:19Z</time>
      </trkpt>
      <trkpt lat="46.17332" lon="3.43863">
        <ele>324.07</ele>
        <time>2014-06-21T10:27:36Z</time>
      </trkpt>
      <trkpt lat="46.17298" lon="3.4396">
        <ele>324.3</ele>
        <time>2014-06-21T10:27:56Z</time>
      </trkpt>
      <trkpt lat="46.17228" lon="3.43932">
        <ele>329.43</ele>
        <time>2014-06-21T10:28:51Z</time>
      </trkpt>
      <trkpt lat="46.17158" lon="3.43962">
        <ele>332.05</ele>
        <time>2014-06-21T10:29:19Z</time>
      </trkpt>
      <trkpt lat="46.17087" lon="3.43997">
        <ele>333.55</ele>
        <time>2014-06-21T10:29:52Z</time>
      </trkpt>
      <trkpt lat="46.17019" lon="3.44037">
        <ele>335.55</ele>
        <time>2014-06-21T10:30:25Z</time>
      </trkpt>
      <trkpt lat="46.16946" lon="3.44039">
        <ele>339.3</ele>
        <time>2014-06-21T10:30:53Z</time>
      </trkpt>
      <trkpt lat="46.16875" lon="3.44059">
        <ele>343.49</ele>
        <time>2014-06-21T10:31:19Z</time>
      </trkpt>
      <trkpt lat="46.16823" lon="3.44134">
        <ele>349.02</ele>
        <time>2014-06-21T10:31:45Z</time>
      </trkpt>
      <trkpt lat="46.16793" lon="3.44228">
        <ele>353.43</ele>
        <time>2014-06-21T10:32:10Z</time>
      </trkpt>
      <trkpt lat="46.16737" lon="3.44295">
        <ele>357.3</ele>
        <time>2014-06-21T10:32:40Z</time>
      </trkpt>
      <trkpt lat="46.16669" lon="3.44336">
        <ele>363.04</ele>
        <time>2014-06-21T10:33:07Z</time>
      </trkpt>
      <trkpt lat="46.16601" lon="3.44376">
        <ele>367.52</ele>
        <time>2014-06-21T10:33:31Z</time>
      </trkpt>
      <trkpt lat="46.16531" lon="3.44417">
        <ele>375.06</ele>
        <time>2014-06-21T10:33:52Z</time>
      </trkpt>
      <trkpt lat="46.16468" lon="3.44475">
        <ele>379.29</ele>
        <time>2014-06-21T10:34:12Z</time>
      </trkpt>
      <trkpt lat="46.16407" lon="3.44539">
        <ele>383.43</ele>
        <time>2014-06-21T10:34:31Z</time>
      </trkpt>
      <trkpt lat="46.16336" lon="3.44574">
        <ele>385.55</ele>
        <time>2014-06-21T10:34:49Z</time>
      </trkpt>
      <trkpt lat="46.16265" lon="3.44599">
        <ele>387.52</ele>
        <time>2014-06-21T10:35:07Z</time>
      </trkpt>
      <trkpt lat="46.16191" lon="3.44621">
        <ele>388.55</ele>
        <time>2014-06-21T10:35:26Z</time>
      </trkpt>
      <trkpt lat="46.16138" lon="3.44692">
        <ele>388.55</ele>
        <time>2014-06-21T10:35:41Z</time>
      </trkpt>
      <trkpt lat="46.1606" lon="3.4469">
        <ele>392.55</ele>
        <time>2014-06-21T10:36:00Z</time>
      </trkpt>
      <trkpt lat="46.15986" lon="3.44694">
        <ele>394.3</ele>
        <time>2014-06-21T10:36:15Z</time>
      </trkpt>
      <trkpt lat="46.15911" lon="3.44707">
        <ele>396.05</ele>
        <time>2014-06-21T10:36:29Z</time>
      </trkpt>
      <trkpt lat="46.15839" lon="3.44748">
        <ele>397.52</ele>
        <time>2014-06-21T10:36:42Z</time>
      </trkpt>
      <trkpt lat="46.15767" lon="3.44788">
        <ele>398.52</ele>
        <time>2014-06-21T10:36:53Z</time>
      </trkpt>
      <trkpt lat="46.15695" lon="3.4481">
        <ele>397.58</ele>
        <time>2014-06-21T10:37:02Z</time>
      </trkpt>
      <trkpt lat="46.15633" lon="3.44872">
        <ele>396.55</ele>
        <time>2014-06-21T10:37:13Z</time>
      </trkpt>
      <trkpt lat="46.15562" lon="3.44917">
        <ele>396.55</ele>
        <time>2014-06-21T10:37:21Z</time>
      </trkpt>
      <trkpt lat="46.15572" lon="3.45029">
        <ele>386.05</ele>
        <time>2014-06-21T10:37:38Z</time>
      </trkpt>
      <trkpt lat="46.15585" lon="3.45134">
        <ele>381.68</ele>
        <time>2014-06-21T10:37:52Z</time>
      </trkpt>
      <trkpt lat="46.15594" lon="3.45239">
        <ele>382.05</ele>
        <time>2014-06-21T10:38:07Z</time>
      </trkpt>
      <trkpt lat="46.15559" lon="3.45338">
        <ele>381.55</ele>
        <time>2014-06-21T10:38:21Z</time>
      </trkpt>
      <trkpt lat="46.15562" lon="3.45443">
        <ele>381.15</ele>
        <time>2014-06-21T10:38:31Z</time>
      </trkpt>
      <trkpt lat="46.1559" lon="3.45541">
        <ele>378.13</ele>
        <time>2014-06-21T10:38:39Z</time>
      </trkpt>
      <trkpt lat="46.15565" lon="3.4564">
        <ele>350.69</ele>
        <time>2014-06-21T10:38:49Z</time>
      </trkpt>
      <trkpt lat="46.15606" lon="3.45726">
        <ele>340.5</ele>
        <time>2014-06-21T10:38:58Z</time>
      </trkpt>
      <trkpt lat="46.15609" lon="3.45835">
        <ele>336.18</ele>
        <time>2014-06-21T10:39:11Z</time>
      </trkpt>
      <trkpt lat="46.15559" lon="3.45915">
        <ele>332.18</ele>
        <time>2014-06-21T10:39:25Z</time>
      </trkpt>
      <trkpt lat="46.15562" lon="3.46029">
        <ele>327.7</ele>
        <time>2014-06-21T10:39:34Z</time>
      </trkpt>
      <trkpt lat="46.15527" lon="3.46121">
        <ele>324.19</ele>
        <time>2014-06-21T10:39:51Z</time>
      </trkpt>
      <trkpt lat="46.15501" lon="3.4622">
        <ele>319.2</ele>
        <time>2014-06-21T10:40:03Z</time>
      </trkpt>
      <trkpt lat="46.15469" lon="3.46316">
        <ele>316.59</ele>
        <time>2014-06-21T10:40:15Z</time>
      </trkpt>
      <trkpt lat="46.15437" lon="3.46417">
        <ele>315.55</ele>
        <time>2014-06-21T10:40:27Z</time>
      </trkpt>
      <trkpt lat="46.15406" lon="3.46514">
        <ele>313.56</ele>
        <time>2014-06-21T10:40:38Z</time>
      </trkpt>
      <trkpt lat="46.15353" lon="3.46586">
        <ele>311.8</ele>
        <time>2014-06-21T10:40:50Z</time>
      </trkpt>
      <trkpt lat="46.15285" lon="3.46546">
        <ele>313.49</ele>
        <time>2014-06-21T10:41:05Z</time>
      </trkpt>
      <trkpt lat="46.15236" lon="3.46468">
        <ele>315.41</ele>
        <time>2014-06-21T10:41:22Z</time>
      </trkpt>
      <trkpt lat="46.15171" lon="3.46415">
        <ele>316.43</ele>
        <time>2014-06-21T10:41:42Z</time>
      </trkpt>
      <trkpt lat="46.1511" lon="3.46355">
        <ele>317.55</ele>
        <time>2014-06-21T10:42:00Z</time>
      </trkpt>
      <trkpt lat="46.15044" lon="3.46305">
        <ele>318.55</ele>
        <time>2014-06-21T10:42:20Z</time>
      </trkpt>
      <trkpt lat="46.14981" lon="3.46355">
        <ele>320.3</ele>
        <time>2014-06-21T10:42:40Z</time>
      </trkpt>
      <trkpt lat="46.14915" lon="3.46406">
        <ele>322.55</ele>
        <time>2014-06-21T10:43:01Z</time>
      </trkpt>
      <trkpt lat="46.14843" lon="3.46419">
        <ele>324.55</ele>
        <time>2014-06-21T10:43:22Z</time>
      </trkpt>
      <trkpt lat="46.14769" lon="3.46402">
        <ele>326.55</ele>
        <time>2014-06-21T10:43:44Z</time>
      </trkpt>
      <trkpt lat="46.14694" lon="3.46398">
        <ele>329.49</ele>
        <time>2014-06-21T10:44:06Z</time>
      </trkpt>
      <trkpt lat="46.14623" lon="3.46411">
        <ele>333.49</ele>
        <time>2014-06-21T10:44:28Z</time>
      </trkpt>
      <trkpt lat="46.1458" lon="3.46498">
        <ele>344.52</ele>
        <time>2014-06-21T10:44:50Z</time>
      </trkpt>
      <trkpt lat="46.14516" lon="3.46554">
        <ele>347.03</ele>
        <time>2014-06-21T10:45:00Z</time>
      </trkpt>
      <trkpt lat="46.14521" lon="3.46659">
        <ele>347.43</ele>
        <time>2014-06-21T10:45:16Z</time>
      </trkpt>
      <trkpt lat="46.14553" lon="3.46758">
        <ele>344.72</ele>
        <time>2014-06-21T10:45:28Z</time>
      </trkpt>
      <trkpt lat="46.14575" lon="3.46861">
        <ele>343.06</ele>
        <time>2014-06-21T10:45:41Z</time>
      </trkpt>
      <trkpt lat="46.14574" lon="3.46973">
        <ele>341.8</ele>
        <time>2014-06-21T10:46:02Z</time>
      </trkpt>
      <trkpt lat="46.14552" lon="3.47071">
        <ele>339.58</ele>
        <time>2014-06-21T10:46:14Z</time>
      </trkpt>
      <trkpt lat="46.14511" lon="3.47157">
        <ele>338.68</ele>
        <time>2014-06-21T10:46:34Z</time>
      </trkpt>
      <trkpt lat="46.1446" lon="3.47239">
        <ele>340.8</ele>
        <time>2014-06-21T10:46:55Z</time>
      </trkpt>
      <trkpt lat="46.14516" lon="3.47307">
        <ele>347.27</ele>
        <time>2014-06-21T10:47:13Z</time>
      </trkpt>
      <trkpt lat="46.14569" lon="3.47385">
        <ele>349.55</ele>
        <time>2014-06-21T10:47:26Z</time>
      </trkpt>
      <trkpt lat="46.14534" lon="3.47477">
        <ele>351.55</ele>
        <time>2014-06-21T10:47:51Z</time>
      </trkpt>
      <trkpt lat="46.14466" lon="3.4744">
        <ele>349.57</ele>
        <time>2014-06-21T10:48:07Z</time>
      </trkpt>
      <trkpt lat="46.14394" lon="3.47402">
        <ele>348.58</ele>
        <time>2014-06-21T10:48:20Z</time>
      </trkpt>
      <trkpt lat="46.14326" lon="3.47355">
        <ele>347.55</ele>
        <time>2014-06-21T10:48:32Z</time>
      </trkpt>
      <trkpt lat="46.14251" lon="3.4732">
        <ele>346.68</ele>
        <time>2014-06-21T10:48:42Z</time>
      </trkpt>
      <trkpt lat="46.14177" lon="3.47284">
        <ele>340.78</ele>
        <time>2014-06-21T10:48:50Z</time>
      </trkpt>
      <trkpt lat="46.14105" lon="3.47307">
        <ele>330.49</ele>
        <time>2014-06-21T10:48:57Z</time>
      </trkpt>
      <trkpt lat="46.14039" lon="3.47348">
        <ele>318.58</ele>
        <time>2014-06-21T10:49:05Z</time>
      </trkpt>
      <trkpt lat="46.14002" lon="3.47443">
        <ele>314.85</ele>
        <time>2014-06-21T10:49:13Z</time>
      </trkpt>
      <trkpt lat="46.13933" lon="3.47481">
        <ele>306.73</ele>
        <time>2014-06-21T10:49:35Z</time>
      </trkpt>
      <trkpt lat="46.13857" lon="3.47477">
        <ele>301.84</ele>
        <time>2014-06-21T10:49:49Z</time>
      </trkpt>
      <trkpt lat="46.13795" lon="3.47421">
        <ele>296.25</ele>
        <time>2014-06-21T10:50:01Z</time>
      </trkpt>
      <trkpt lat="46.13755" lon="3.47325">
        <ele>294.58</ele>
        <time>2014-06-21T10:50:13Z</time>
      </trkpt>
      <trkpt lat="46.13699" lon="3.47404">
        <ele>289.14</ele>
        <time>2014-06-21T10:50:25Z</time>
      </trkpt>
      <trkpt lat="46.13649" lon="3.47481">
        <ele>287.56</ele>
        <time>2014-06-21T10:50:36Z</time>
      </trkpt>
      <trkpt lat="46.13651" lon="3.47589">
        <ele>288.55</ele>
        <time>2014-06-21T10:50:49Z</time>
      </trkpt>
      <trkpt lat="46.13661" lon="3.47692">
        <ele>287.08</ele>
        <time>2014-06-21T10:51:01Z</time>
      </trkpt>
      <trkpt lat="46.13594" lon="3.47732">
        <ele>290.49</ele>
        <time>2014-06-21T10:51:22Z</time>
      </trkpt>
      <trkpt lat="46.13527" lon="3.47773">
        <ele>293.54</ele>
        <time>2014-06-21T10:51:48Z</time>
      </trkpt>
      <trkpt lat="46.13461" lon="3.47816">
        <ele>297.52</ele>
        <time>2014-06-21T10:52:18Z</time>
      </trkpt>
      <trkpt lat="46.13401" lon="3.47878">
        <ele>305.43</ele>
        <time>2014-06-21T10:53:00Z</time>
      </trkpt>
      <trkpt lat="46.13349" lon="3.47953">
        <ele>311.54</ele>
        <time>2014-06-21T10:53:35Z</time>
      </trkpt>
      <trkpt lat="46.13281" lon="3.47992">
        <ele>316.54</ele>
        <time>2014-06-21T10:54:03Z</time>
      </trkpt>
      <trkpt lat="46.13209" lon="3.48005">
        <ele>324.42</ele>
        <time>2014-06-21T10:54:34Z</time>
      </trkpt>
      <trkpt lat="46.13139" lon="3.48031">
        <ele>332.29</ele>
        <time>2014-06-21T10:55:05Z</time>
      </trkpt>
      <trkpt lat="46.13066" lon="3.48035">
        <ele>339.02</ele>
        <time>2014-06-21T10:55:33Z</time>
      </trkpt>
      <trkpt lat="46.13051" lon="3.47932">
        <ele>350.58</ele>
        <time>2014-06-21T10:55:54Z</time>
      </trkpt>
      <trkpt lat="46.13036" lon="3.47822">
        <ele>362.38</ele>
        <time>2014-06-21T10:56:07Z</time>
      </trkpt>
      <trkpt lat="46.12962" lon="3.47835">
        <ele>361.55</ele>
        <time>2014-06-21T10:56:37Z</time>
      </trkpt>
      <trkpt lat="46.12887" lon="3.47835">
        <ele>361.55</ele>
        <time>2014-06-21T10:57:03Z</time>
      </trkpt>
      <trkpt lat="46.12815" lon="3.47852">
        <ele>362.55</ele>
        <time>2014-06-21T10:57:28Z</time>
      </trkpt>
      <trkpt lat="46.12743" lon="3.47861">
        <ele>366.3</ele>
        <time>2014-06-21T10:57:56Z</time>
      </trkpt>
      <trkpt lat="46.12671" lon="3.47867">
        <ele>372.49</ele>
        <time>2014-06-21T10:58:29Z</time>
      </trkpt>
      <trkpt lat="46.12602" lon="3.47904">
        <ele>379.49</ele>
        <time>2014-06-21T10:59:12Z</time>
      </trkpt>
      <trkpt lat="46.12588" lon="3.48007">
        <ele>387.42</ele>
        <time>2014-06-21T10:59:54Z</time>
      </trkpt>
      <trkpt lat="46.12563" lon="3.48106">
        <ele>396.52</ele>
        <time>2014-06-21T11:00:42Z</time>
      </trkpt>
      <trkpt lat="46.12558" lon="3.48211">
        <ele>402.04</ele>
        <time>2014-06-21T11:01:22Z</time>
      </trkpt>
      <trkpt lat="46.12534" lon="3.48312">
        <ele>410.49</ele>
        <time>2014-06-21T11:02:02Z</time>
      </trkpt>
      <trkpt lat="46.12505" lon="3.48408">
        <ele>419.49</ele>
        <time>2014-06-21T11:02:39Z</time>
      </trkpt>
      <trkpt lat="46.12478" lon="3.48505">
        <ele>428.41</ele>
        <time>2014-06-21T11:03:16Z</time>
      </trkpt>
      <trkpt lat="46.12442" lon="3.48597">
        <ele>437.29</ele>
        <time>2014-06-21T11:03:52Z</time>
      </trkpt>
      <trkpt lat="46.1238" lon="3.48651">
        <ele>445.02</ele>
        <time>2014-06-21T11:04:27Z</time>
      </trkpt>
      <trkpt lat="46.1232" lon="3.48717">
        <ele>451.24</ele>
        <time>2014-06-21T11:04:54Z</time>
      </trkpt>
      <trkpt lat="46.12263" lon="3.48788">
        <ele>460.26</ele>
        <time>2014-06-21T11:05:13Z</time>
      </trkpt>
      <trkpt lat="46.12216" lon="3.4887">
        <ele>462.55</ele>
        <time>2014-06-21T11:05:32Z</time>
      </trkpt>
      <trkpt lat="46.12182" lon="3.48973">
        <ele>463.54</ele>
        <time>2014-06-21T11:05:50Z</time>
      </trkpt>
      <trkpt lat="46.12168" lon="3.49076">
        <ele>465.54</ele>
        <time>2014-06-21T11:06:04Z</time>
      </trkpt>
      <trkpt lat="46.12125" lon="3.49168">
        <ele>465.55</ele>
        <time>2014-06-21T11:06:17Z</time>
      </trkpt>
      <trkpt lat="46.12067" lon="3.49239">
        <ele>464.55</ele>
        <time>2014-06-21T11:06:32Z</time>
      </trkpt>
      <trkpt lat="46.12009" lon="3.49303">
        <ele>465.52</ele>
        <time>2014-06-21T11:06:47Z</time>
      </trkpt>
      <trkpt lat="46.11945" lon="3.4935">
        <ele>467.55</ele>
        <time>2014-06-21T11:07:03Z</time>
      </trkpt>
      <trkpt lat="46.119" lon="3.49264">
        <ele>468.55</ele>
        <time>2014-06-21T11:07:20Z</time>
      </trkpt>
      <trkpt lat="46.11874" lon="3.49161">
        <ele>469.05</ele>
        <time>2014-06-21T11:07:32Z</time>
      </trkpt>
      <trkpt lat="46.11851" lon="3.49061">
        <ele>470.3</ele>
        <time>2014-06-21T11:07:43Z</time>
      </trkpt>
      <trkpt lat="46.11836" lon="3.48953">
        <ele>468.12</ele>
        <time>2014-06-21T11:07:53Z</time>
      </trkpt>
      <trkpt lat="46.11803" lon="3.48861">
        <ele>465.81</ele>
        <time>2014-06-21T11:08:04Z</time>
      </trkpt>
      <trkpt lat="46.1177" lon="3.48758">
        <ele>462.22</ele>
        <time>2014-06-21T11:08:13Z</time>
      </trkpt>
      <trkpt lat="46.11743" lon="3.48657">
        <ele>453.43</ele>
        <time>2014-06-21T11:08:25Z</time>
      </trkpt>
      <trkpt lat="46.11748" lon="3.48546">
        <ele>444.93</ele>
        <time>2014-06-21T11:08:35Z</time>
      </trkpt>
      <trkpt lat="46.11726" lon="3.4844">
        <ele>439.99</ele>
        <time>2014-06-21T11:08:46Z</time>
      </trkpt>
      <trkpt lat="46.11715" lon="3.48329">
        <ele>429.77</ele>
        <time>2014-06-21T11:08:56Z</time>
      </trkpt>
      <trkpt lat="46.11718" lon="3.48222">
        <ele>420.34</ele>
        <time>2014-06-21T11:09:04Z</time>
      </trkpt>
      <trkpt lat="46.11714" lon="3.48116">
        <ele>415.04</ele>
        <time>2014-06-21T11:09:11Z</time>
      </trkpt>
      <trkpt lat="46.11682" lon="3.48018">
        <ele>400.77</ele>
        <time>2014-06-21T11:09:20Z</time>
      </trkpt>
      <trkpt lat="46.11605" lon="3.47996">
        <ele>384.24</ele>
        <time>2014-06-21T11:09:32Z</time>
      </trkpt>
      <trkpt lat="46.11565" lon="3.47902">
        <ele>370.63</ele>
        <time>2014-06-21T11:09:50Z</time>
      </trkpt>
      <trkpt lat="46.11592" lon="3.47801">
        <ele>369.57</ele>
        <time>2014-06-21T11:10:02Z</time>
      </trkpt>
      <trkpt lat="46.11642" lon="3.47711">
        <ele>367.56</ele>
        <time>2014-06-21T11:10:15Z</time>
      </trkpt>
      <trkpt lat="46.11664" lon="3.47608">
        <ele>368.43</ele>
        <time>2014-06-21T11:10:25Z</time>
      </trkpt>
      <trkpt lat="46.11667" lon="3.47503">
        <ele>347.95</ele>
        <time>2014-06-21T11:10:46Z</time>
      </trkpt>
      <trkpt lat="46.11606" lon="3.4744">
        <ele>318.58</ele>
        <time>2014-06-21T11:11:06Z</time>
      </trkpt>
      <trkpt lat="46.11553" lon="3.47368">
        <ele>315.53</ele>
        <time>2014-06-21T11:11:26Z</time>
      </trkpt>
      <trkpt lat="46.11494" lon="3.47303">
        <ele>318.3</ele>
        <time>2014-06-21T11:11:51Z</time>
      </trkpt>
      <trkpt lat="46.11451" lon="3.47217">
        <ele>320.55</ele>
        <time>2014-06-21T11:12:25Z</time>
      </trkpt>
      <trkpt lat="46.11387" lon="3.47147">
        <ele>322.52</ele>
        <time>2014-06-21T11:12:59Z</time>
      </trkpt>
      <trkpt lat="46.11326" lon="3.47089">
        <ele>322.55</ele>
        <time>2014-06-21T11:13:26Z</time>
      </trkpt>
      <trkpt lat="46.11262" lon="3.47028">
        <ele>324.05</ele>
        <time>2014-06-21T11:13:59Z</time>
      </trkpt>
      <trkpt lat="46.112" lon="3.46973">
        <ele>328.52</ele>
        <time>2014-06-21T11:14:33Z</time>
      </trkpt>
      <trkpt lat="46.11146" lon="3.46902">
        <ele>333.55</ele>
        <time>2014-06-21T11:15:13Z</time>
      </trkpt>
      <trkpt lat="46.11075" lon="3.46917">
        <ele>337.55</ele>
        <time>2014-06-21T11:15:53Z</time>
      </trkpt>
      <trkpt lat="46.11003" lon="3.46928">
        <ele>346.49</ele>
        <time>2014-06-21T11:16:41Z</time>
      </trkpt>
      <trkpt lat="46.10931" lon="3.46943">
        <ele>355.49</ele>
        <time>2014-06-21T11:17:25Z</time>
      </trkpt>
      <trkpt lat="46.10858" lon="3.46934">
        <ele>360.05</ele>
        <time>2014-06-21T11:18:04Z</time>
      </trkpt>
      <trkpt lat="46.10782" lon="3.46934">
        <ele>367.37</ele>
        <time>2014-06-21T11:18:27Z</time>
      </trkpt>
      <trkpt lat="46.1071" lon="3.46962">
        <ele>374.48</ele>
        <time>2014-06-21T11:18:43Z</time>
      </trkpt>
      <trkpt lat="46.1064" lon="3.46988">
        <ele>375.44</ele>
        <time>2014-06-21T11:18:59Z</time>
      </trkpt>
      <trkpt lat="46.10569" lon="3.47018">
        <ele>377.55</ele>
        <time>2014-06-21T11:19:18Z</time>
      </trkpt>
      <trkpt lat="46.10541" lon="3.46921">
        <ele>377.55</ele>
        <time>2014-06-21T11:20:05Z</time>
      </trkpt>
      <trkpt lat="46.1053" lon="3.46812">
        <ele>383.02</ele>
        <time>2014-06-21T11:20:58Z</time>
      </trkpt>
      <trkpt lat="46.10515" lon="3.46707">
        <ele>391.99</ele>
        <time>2014-06-21T11:21:39Z</time>
      </trkpt>
      <trkpt lat="46.10446" lon="3.46668">
        <ele>403.97</ele>
        <time>2014-06-21T11:22:15Z</time>
      </trkpt>
      <trkpt lat="46.10506" lon="3.46726">
        <ele>424.43</ele>
        <time>2014-06-21T11:33:50Z</time>
      </trkpt>
      <trkpt lat="46.10518" lon="3.46835">
        <ele>423.55</ele>
        <time>2014-06-21T11:34:14Z</time>
      </trkpt>
      <trkpt lat="46.10446" lon="3.4687">
        <ele>421.8</ele>
        <time>2014-06-21T11:34:44Z</time>
      </trkpt>
      <trkpt lat="46.10375" lon="3.46908">
        <ele>419.05</ele>
        <time>2014-06-21T11:34:58Z</time>
      </trkpt>
      <trkpt lat="46.10302" lon="3.46938">
        <ele>412.91</ele>
        <time>2014-06-21T11:35:13Z</time>
      </trkpt>
      <trkpt lat="46.10322" lon="3.47046">
        <ele>408.63</ele>
        <time>2014-06-21T11:35:25Z</time>
      </trkpt>
      <trkpt lat="46.10392" lon="3.47089">
        <ele>397.57</ele>
        <time>2014-06-21T11:35:42Z</time>
      </trkpt>
      <trkpt lat="46.10466" lon="3.47093">
        <ele>391.59</ele>
        <time>2014-06-21T11:35:58Z</time>
      </trkpt>
      <trkpt lat="46.10534" lon="3.47054">
        <ele>390.55</ele>
        <time>2014-06-21T11:36:17Z</time>
      </trkpt>
      <trkpt lat="46.1061" lon="3.47024">
        <ele>392.55</ele>
        <time>2014-06-21T11:36:31Z</time>
      </trkpt>
      <trkpt lat="46.1068" lon="3.4699">
        <ele>391.8</ele>
        <time>2014-06-21T11:36:42Z</time>
      </trkpt>
      <trkpt lat="46.10753" lon="3.46958">
        <ele>388.08</ele>
        <time>2014-06-21T11:36:57Z</time>
      </trkpt>
      <trkpt lat="46.10822" lon="3.4693">
        <ele>384.59</ele>
        <time>2014-06-21T11:37:14Z</time>
      </trkpt>
      <trkpt lat="46.10893" lon="3.46956">
        <ele>385.99</ele>
        <time>2014-06-21T11:37:37Z</time>
      </trkpt>
      <trkpt lat="46.1097" lon="3.46949">
        <ele>385.82</ele>
        <time>2014-06-21T11:37:49Z</time>
      </trkpt>
      <trkpt lat="46.11042" lon="3.46941">
        <ele>379.28</ele>
        <time>2014-06-21T11:38:00Z</time>
      </trkpt>
      <trkpt lat="46.11119" lon="3.46934">
        <ele>367.63</ele>
        <time>2014-06-21T11:38:16Z</time>
      </trkpt>
      <trkpt lat="46.11192" lon="3.4696">
        <ele>362.07</ele>
        <time>2014-06-21T11:38:38Z</time>
      </trkpt>
      <trkpt lat="46.11264" lon="3.46966">
        <ele>351.56</ele>
        <time>2014-06-21T11:39:00Z</time>
      </trkpt>
      <trkpt lat="46.1134" lon="3.46979">
        <ele>347.07</ele>
        <time>2014-06-21T11:39:23Z</time>
      </trkpt>
      <trkpt lat="46.11414" lon="3.46981">
        <ele>338.49</ele>
        <time>2014-06-21T11:39:42Z</time>
      </trkpt>
      <trkpt lat="46.11485" lon="3.46992">
        <ele>336.55</ele>
        <time>2014-06-21T11:40:06Z</time>
      </trkpt>
      <trkpt lat="46.11558" lon="3.47005">
        <ele>337.55</ele>
        <time>2014-06-21T11:40:30Z</time>
      </trkpt>
      <trkpt lat="46.11628" lon="3.47037">
        <ele>340.54</ele>
        <time>2014-06-21T11:41:08Z</time>
      </trkpt>
      <trkpt lat="46.11696" lon="3.4708">
        <ele>343.54</ele>
        <time>2014-06-21T11:41:31Z</time>
      </trkpt>
      <trkpt lat="46.11762" lon="3.47138">
        <ele>348.55</ele>
        <time>2014-06-21T11:42:00Z</time>
      </trkpt>
      <trkpt lat="46.11833" lon="3.47194">
        <ele>348.55</ele>
        <time>2014-06-21T11:42:33Z</time>
      </trkpt>
      <trkpt lat="46.11892" lon="3.47256">
        <ele>344.62</ele>
        <time>2014-06-21T11:43:21Z</time>
      </trkpt>
      <trkpt lat="46.11945" lon="3.47329">
        <ele>339.65</ele>
        <time>2014-06-21T11:43:41Z</time>
      </trkpt>
      <trkpt lat="46.11948" lon="3.47434">
        <ele>333.55</ele>
        <time>2014-06-21T11:44:06Z</time>
      </trkpt>
      <trkpt lat="46.11876" lon="3.47428">
        <ele>334.55</ele>
        <time>2014-06-21T11:44:52Z</time>
      </trkpt>
      <trkpt lat="46.11802" lon="3.47443">
        <ele>338.52</ele>
        <time>2014-06-21T11:45:50Z</time>
      </trkpt>
      <trkpt lat="46.11729" lon="3.47456">
        <ele>345.55</ele>
        <time>2014-06-21T11:46:21Z</time>
      </trkpt>
      <trkpt lat="46.11659" lon="3.47486">
        <ele>332.69</ele>
        <time>2014-06-21T11:47:02Z</time>
      </trkpt>
      <trkpt lat="46.1159" lon="3.47451">
        <ele>329.05</ele>
        <time>2014-06-21T11:47:30Z</time>
      </trkpt>
      <trkpt lat="46.11523" lon="3.47509">
        <ele>332.55</ele>
        <time>2014-06-21T11:49:02Z</time>
      </trkpt>
      <trkpt lat="46.11492" lon="3.47604">
        <ele>333.55</ele>
        <time>2014-06-21T11:50:01Z</time>
      </trkpt>
      <trkpt lat="46.11447" lon="3.47685">
        <ele>334.52</ele>
        <time>2014-06-21T11:50:53Z</time>
      </trkpt>
      <trkpt lat="46.11404" lon="3.47771">
        <ele>335.55</ele>
        <time>2014-06-21T11:51:32Z</time>
      </trkpt>
      <trkpt lat="46.11409" lon="3.47666">
        <ele>350.46</ele>
        <time>2014-06-21T11:52:57Z</time>
      </trkpt>
      <trkpt lat="46.1137" lon="3.47569">
        <ele>359.54</ele>
        <time>2014-06-21T11:53:37Z</time>
      </trkpt>
      <trkpt lat="46.11296" lon="3.47535">
        <ele>368.52</ele>
        <time>2014-06-21T11:54:23Z</time>
      </trkpt>
      <trkpt lat="46.11217" lon="3.47528">
        <ele>374.05</ele>
        <time>2014-06-21T11:55:07Z</time>
      </trkpt>
      <trkpt lat="46.11209" lon="3.47634">
        <ele>379.55</ele>
        <time>2014-06-21T11:56:15Z</time>
      </trkpt>
      <trkpt lat="46.11172" lon="3.47724">
        <ele>379.55</ele>
        <time>2014-06-21T11:56:48Z</time>
      </trkpt>
      <trkpt lat="46.11101" lon="3.47752">
        <ele>380.55</ele>
        <time>2014-06-21T11:57:33Z</time>
      </trkpt>
      <trkpt lat="46.11028" lon="3.47741">
        <ele>384.05</ele>
        <time>2014-06-21T11:58:17Z</time>
      </trkpt>
      <trkpt lat="46.10955" lon="3.47749">
        <ele>388.55</ele>
        <time>2014-06-21T11:59:03Z</time>
      </trkpt>
      <trkpt lat="46.10887" lon="3.47784">
        <ele>392.55</ele>
        <time>2014-06-21T11:59:42Z</time>
      </trkpt>
      <trkpt lat="46.10818" lon="3.47816">
        <ele>396.52</ele>
        <time>2014-06-21T12:00:15Z</time>
      </trkpt>
      <trkpt lat="46.10743" lon="3.47805">
        <ele>410.41</ele>
        <time>2014-06-21T12:02:04Z</time>
      </trkpt>
      <trkpt lat="46.10668" lon="3.47799">
        <ele>416.41</ele>
        <time>2014-06-21T12:02:20Z</time>
      </trkpt>
      <trkpt lat="46.10597" lon="3.47822">
        <ele>421.05</ele>
        <time>2014-06-21T12:02:47Z</time>
      </trkpt>
      <trkpt lat="46.1057" lon="3.47921">
        <ele>425.49</ele>
        <time>2014-06-21T12:03:19Z</time>
      </trkpt>
      <trkpt lat="46.10556" lon="3.48028">
        <ele>427.55</ele>
        <time>2014-06-21T12:03:44Z</time>
      </trkpt>
      <trkpt lat="46.10535" lon="3.48129">
        <ele>429.43</ele>
        <time>2014-06-21T12:04:06Z</time>
      </trkpt>
      <trkpt lat="46.10472" lon="3.482">
        <ele>435.55</ele>
        <time>2014-06-21T12:04:28Z</time>
      </trkpt>
      <trkpt lat="46.10507" lon="3.48292">
        <ele>431.71</ele>
        <time>2014-06-21T12:04:46Z</time>
      </trkpt>
      <trkpt lat="46.10522" lon="3.48397">
        <ele>410.85</ele>
        <time>2014-06-21T12:05:08Z</time>
      </trkpt>
      <trkpt lat="46.10575" lon="3.48473">
        <ele>399.84</ele>
        <time>2014-06-21T12:05:21Z</time>
      </trkpt>
      <trkpt lat="46.10644" lon="3.48511">
        <ele>387.72</ele>
        <time>2014-06-21T12:06:52Z</time>
      </trkpt>
      <trkpt lat="46.10723" lon="3.48509">
        <ele>380.12</ele>
        <time>2014-06-21T12:07:23Z</time>
      </trkpt>
      <trkpt lat="46.10752" lon="3.4861">
        <ele>371.58</ele>
        <time>2014-06-21T12:08:48Z</time>
      </trkpt>
      <trkpt lat="46.10717" lon="3.48702">
        <ele>367.82</ele>
        <time>2014-06-21T12:09:07Z</time>
      </trkpt>
      <trkpt lat="46.1065" lon="3.48741">
        <ele>352.81</ele>
        <time>2014-06-21T12:10:03Z</time>
      </trkpt>
      <trkpt lat="46.1067" lon="3.48846">
        <ele>345.8</ele>
        <time>2014-06-21T12:11:31Z</time>
      </trkpt>
      <trkpt lat="46.10613" lon="3.48912">
        <ele>331.56</ele>
        <time>2014-06-21T12:13:06Z</time>
      </trkpt>
      <trkpt lat="46.10546" lon="3.48951">
        <ele>330.55</ele>
        <time>2014-06-21T12:13:46Z</time>
      </trkpt>
      <trkpt lat="46.10477" lon="3.48992">
        <ele>330.62</ele>
        <time>2014-06-21T12:15:41Z</time>
      </trkpt>
      <trkpt lat="46.10486" lon="3.48887">
        <ele>312.69</ele>
        <time>2014-06-21T12:16:24Z</time>
      </trkpt>
      <trkpt lat="46.10493" lon="3.48782">
        <ele>310.55</ele>
        <time>2014-06-21T12:17:20Z</time>
      </trkpt>
      <trkpt lat="46.10483" lon="3.48679">
        <ele>343.39</ele>
        <time>2014-06-21T12:18:34Z</time>
      </trkpt>
      <trkpt lat="46.10425" lon="3.48741">
        <ele>363.05</ele>
        <time>2014-06-21T12:20:39Z</time>
      </trkpt>
      <trkpt lat="46.10374" lon="3.48816">
        <ele>368.52</ele>
        <time>2014-06-21T12:21:30Z</time>
      </trkpt>
      <trkpt lat="46.10321" lon="3.48889">
        <ele>374.43</ele>
        <time>2014-06-21T12:22:16Z</time>
      </trkpt>
      <trkpt lat="46.10255" lon="3.48932">
        <ele>386.49</ele>
        <time>2014-06-21T12:23:29Z</time>
      </trkpt>
      <trkpt lat="46.10183" lon="3.4894">
        <ele>413.97</ele>
        <time>2014-06-21T12:26:39Z</time>
      </trkpt>
      <trkpt lat="46.10115" lon="3.48977">
        <ele>425.42</ele>
        <time>2014-06-21T12:27:18Z</time>
      </trkpt>
      <trkpt lat="46.10064" lon="3.4905">
        <ele>435.43</ele>
        <time>2014-06-21T12:28:28Z</time>
      </trkpt>
      <trkpt lat="46.10049" lon="3.49153">
        <ele>450.05</ele>
        <time>2014-06-21T12:30:02Z</time>
      </trkpt>
      <trkpt lat="46.10046" lon="3.49258">
        <ele>450.55</ele>
        <time>2014-06-21T12:30:36Z</time>
      </trkpt>
      <trkpt lat="46.09987" lon="3.49322">
        <ele>455.54</ele>
        <time>2014-06-21T12:31:15Z</time>
      </trkpt>
      <trkpt lat="46.09932" lon="3.49391">
        <ele>460.49</ele>
        <time>2014-06-21T12:31:47Z</time>
      </trkpt>
      <trkpt lat="46.09928" lon="3.49496">
        <ele>461.55</ele>
        <time>2014-06-21T12:32:26Z</time>
      </trkpt>
      <trkpt lat="46.09899" lon="3.49593">
        <ele>463.55</ele>
        <time>2014-06-21T12:33:05Z</time>
      </trkpt>
      <trkpt lat="46.0986" lon="3.49683">
        <ele>466.55</ele>
        <time>2014-06-21T12:33:44Z</time>
      </trkpt>
      <trkpt lat="46.0982" lon="3.49773">
        <ele>469.3</ele>
        <time>2014-06-21T12:34:21Z</time>
      </trkpt>
      <trkpt lat="46.09762" lon="3.49835">
        <ele>475.55</ele>
        <time>2014-06-21T12:34:58Z</time>
      </trkpt>
      <trkpt lat="46.09698" lon="3.49882">
        <ele>484.29</ele>
        <time>2014-06-21T12:35:35Z</time>
      </trkpt>
      <trkpt lat="46.09678" lon="3.49983">
        <ele>490.05</ele>
        <time>2014-06-21T12:36:05Z</time>
      </trkpt>
      <trkpt lat="46.0967" lon="3.50088">
        <ele>493.55</ele>
        <time>2014-06-21T12:36:31Z</time>
      </trkpt>
      <trkpt lat="46.09678" lon="3.50194">
        <ele>497.43</ele>
        <time>2014-06-21T12:36:55Z</time>
      </trkpt>
      <trkpt lat="46.0972" lon="3.50279">
        <ele>499.55</ele>
        <time>2014-06-21T12:37:15Z</time>
      </trkpt>
      <trkpt lat="46.09765" lon="3.50361">
        <ele>498.58</ele>
        <time>2014-06-21T12:37:47Z</time>
      </trkpt>
      <trkpt lat="46.09695" lon="3.50327">
        <ele>486.49</ele>
        <time>2014-06-21T12:43:20Z</time>
      </trkpt>
      <trkpt lat="46.09673" lon="3.50226">
        <ele>487.54</ele>
        <time>2014-06-21T12:43:40Z</time>
      </trkpt>
      <trkpt lat="46.09635" lon="3.50129">
        <ele>492.87</ele>
        <time>2014-06-21T12:43:54Z</time>
      </trkpt>
      <trkpt lat="46.096" lon="3.50035">
        <ele>498.55</ele>
        <time>2014-06-21T12:44:17Z</time>
      </trkpt>
      <trkpt lat="46.09527" lon="3.50015">
        <ele>499.55</ele>
        <time>2014-06-21T12:45:02Z</time>
      </trkpt>
      <trkpt lat="46.09458" lon="3.49979">
        <ele>497.68</ele>
        <time>2014-06-21T12:45:26Z</time>
      </trkpt>
      <trkpt lat="46.09394" lon="3.50037">
        <ele>488.84</ele>
        <time>2014-06-21T12:45:57Z</time>
      </trkpt>
      <trkpt lat="46.09357" lon="3.50133">
        <ele>467.27</ele>
        <time>2014-06-21T12:46:14Z</time>
      </trkpt>
      <trkpt lat="46.09342" lon="3.50239">
        <ele>465.54</ele>
        <time>2014-06-21T12:46:26Z</time>
      </trkpt>
      <trkpt lat="46.09331" lon="3.50348">
        <ele>461.71</ele>
        <time>2014-06-21T12:46:37Z</time>
      </trkpt>
      <trkpt lat="46.09299" lon="3.50442">
        <ele>456.61</ele>
        <time>2014-06-21T12:46:53Z</time>
      </trkpt>
      <trkpt lat="46.09268" lon="3.50537">
        <ele>458.55</ele>
        <time>2014-06-21T12:47:23Z</time>
      </trkpt>
      <trkpt lat="46.09216" lon="3.50612">
        <ele>460.49</ele>
        <time>2014-06-21T12:47:57Z</time>
      </trkpt>
      <trkpt lat="46.09163" lon="3.50687">
        <ele>461.55</ele>
        <time>2014-06-21T12:48:51Z</time>
      </trkpt>
      <trkpt lat="46.09111" lon="3.50762">
        <ele>464.55</ele>
        <time>2014-06-21T12:49:18Z</time>
      </trkpt>
      <trkpt lat="46.09065" lon="3.50846">
        <ele>469.43</ele>
        <time>2014-06-21T12:49:48Z</time>
      </trkpt>
      <trkpt lat="46.09017" lon="3.50927">
        <ele>472.52</ele>
        <time>2014-06-21T12:50:14Z</time>
      </trkpt>
      <trkpt lat="46.09028" lon="3.51032">
        <ele>474.55</ele>
        <time>2014-06-21T12:50:34Z</time>
      </trkpt>
      <trkpt lat="46.09051" lon="3.51131">
        <ele>475.52</ele>
        <time>2014-06-21T12:50:49Z</time>
      </trkpt>
      <trkpt lat="46.09001" lon="3.51211">
        <ele>481.04</ele>
        <time>2014-06-21T12:51:26Z</time>
      </trkpt>
      <trkpt lat="46.0893" lon="3.51189">
        <ele>489.55</ele>
        <time>2014-06-21T12:51:45Z</time>
      </trkpt>
      <trkpt lat="46.08858" lon="3.5117">
        <ele>495.05</ele>
        <time>2014-06-21T12:54:01Z</time>
      </trkpt>
      <trkpt lat="46.08786" lon="3.51155">
        <ele>499.05</ele>
        <time>2014-06-21T12:54:27Z</time>
      </trkpt>
      <trkpt lat="46.08713" lon="3.5114">
        <ele>502.43</ele>
        <time>2014-06-21T12:54:53Z</time>
      </trkpt>
      <trkpt lat="46.0868" lon="3.51232">
        <ele>506.04</ele>
        <time>2014-06-21T12:55:14Z</time>
      </trkpt>
      <trkpt lat="46.08653" lon="3.51331">
        <ele>508.55</ele>
        <time>2014-06-21T12:55:34Z</time>
      </trkpt>
      <trkpt lat="46.08619" lon="3.51427">
        <ele>513.05</ele>
        <time>2014-06-21T12:55:52Z</time>
      </trkpt>
      <trkpt lat="46.08577" lon="3.51517">
        <ele>513.55</ele>
        <time>2014-06-21T12:56:13Z</time>
      </trkpt>
      <trkpt lat="46.08521" lon="3.51586">
        <ele>512.56</ele>
        <time>2014-06-21T12:56:31Z</time>
      </trkpt>
      <trkpt lat="46.08463" lon="3.5165">
        <ele>514.49</ele>
        <time>2014-06-21T12:56:47Z</time>
      </trkpt>
      <trkpt lat="46.08417" lon="3.51732">
        <ele>515.43</ele>
        <time>2014-06-21T12:57:02Z</time>
      </trkpt>
      <trkpt lat="46.08366" lon="3.51809">
        <ele>518.43</ele>
        <time>2014-06-21T12:57:17Z</time>
      </trkpt>
      <trkpt lat="46.08308" lon="3.5188">
        <ele>519.15</ele>
        <time>2014-06-21T12:57:31Z</time>
      </trkpt>
      <trkpt lat="46.08249" lon="3.51944">
        <ele>520.52</ele>
        <time>2014-06-21T12:57:44Z</time>
      </trkpt>
      <trkpt lat="46.08181" lon="3.51981">
        <ele>521.55</ele>
        <time>2014-06-21T12:57:58Z</time>
      </trkpt>
      <trkpt lat="46.0811" lon="3.52002">
        <ele>523.02</ele>
        <time>2014-06-21T12:58:13Z</time>
      </trkpt>
      <trkpt lat="46.08038" lon="3.51985">
        <ele>527.04</ele>
        <time>2014-06-21T12:58:27Z</time>
      </trkpt>
      <trkpt lat="46.07965" lon="3.51981">
        <ele>525.55</ele>
        <time>2014-06-21T12:58:40Z</time>
      </trkpt>
      <trkpt lat="46.0789" lon="3.51981">
        <ele>524.57</ele>
        <time>2014-06-21T12:58:58Z</time>
      </trkpt>
      <trkpt lat="46.07818" lon="3.51972">
        <ele>524.55</ele>
        <time>2014-06-21T12:59:18Z</time>
      </trkpt>
      <trkpt lat="46.07745" lon="3.51981">
        <ele>520.56</ele>
        <time>2014-06-21T12:59:45Z</time>
      </trkpt>
      <trkpt lat="46.07671" lon="3.51985">
        <ele>515.81</ele>
        <time>2014-06-21T12:59:56Z</time>
      </trkpt>
      <trkpt lat="46.07653" lon="3.5209">
        <ele>521.43</ele>
        <time>2014-06-21T13:00:28Z</time>
      </trkpt>
      <trkpt lat="46.07692" lon="3.5218">
        <ele>522.55</ele>
        <time>2014-06-21T13:00:57Z</time>
      </trkpt>
      <trkpt lat="46.07756" lon="3.52234">
        <ele>516.62</ele>
        <time>2014-06-21T13:02:08Z</time>
      </trkpt>
      <trkpt lat="46.0778" lon="3.52335">
        <ele>511.56</ele>
        <time>2014-06-21T13:02:32Z</time>
      </trkpt>
      <trkpt lat="46.07794" lon="3.52442">
        <ele>512.52</ele>
        <time>2014-06-21T13:02:51Z</time>
      </trkpt>
      <trkpt lat="46.07811" lon="3.52547">
        <ele>512.3</ele>
        <time>2014-06-21T13:03:02Z</time>
      </trkpt>
      <trkpt lat="46.07811" lon="3.52655">
        <ele>515.53</ele>
        <time>2014-06-21T13:03:18Z</time>
      </trkpt>
      <trkpt lat="46.07801" lon="3.52762">
        <ele>507.93</ele>
        <time>2014-06-21T13:04:34Z</time>
      </trkpt>
      <trkpt lat="46.07816" lon="3.52874">
        <ele>488.82</ele>
        <time>2014-06-21T13:04:45Z</time>
      </trkpt>
      <trkpt lat="46.07859" lon="3.52964">
        <ele>490.52</ele>
        <time>2014-06-21T13:04:58Z</time>
      </trkpt>
      <trkpt lat="46.07892" lon="3.53062">
        <ele>491.54</ele>
        <time>2014-06-21T13:05:11Z</time>
      </trkpt>
      <trkpt lat="46.07915" lon="3.53161">
        <ele>484.72</ele>
        <time>2014-06-21T13:09:25Z</time>
      </trkpt>
      <trkpt lat="46.07942" lon="3.53262">
        <ele>484.55</ele>
        <time>2014-06-21T13:09:50Z</time>
      </trkpt>
      <trkpt lat="46.0797" lon="3.53371">
        <ele>481.09</ele>
        <time>2014-06-21T13:10:12Z</time>
      </trkpt>
      <trkpt lat="46.08005" lon="3.5347">
        <ele>467.12</ele>
        <time>2014-06-21T13:10:32Z</time>
      </trkpt>
      <trkpt lat="46.08069" lon="3.53522">
        <ele>454.84</ele>
        <time>2014-06-21T13:11:05Z</time>
      </trkpt>
      <trkpt lat="46.0814" lon="3.53562">
        <ele>436.78</ele>
        <time>2014-06-21T13:11:20Z</time>
      </trkpt>
      <trkpt lat="46.08093" lon="3.53646">
        <ele>406.03</ele>
        <time>2014-06-21T13:13:06Z</time>
      </trkpt>
      <trkpt lat="46.08022" lon="3.53672">
        <ele>404.55</ele>
        <time>2014-06-21T13:13:32Z</time>
      </trkpt>
      <trkpt lat="46.0796" lon="3.53728">
        <ele>404.55</ele>
        <time>2014-06-21T13:13:51Z</time>
      </trkpt>
      <trkpt lat="46.07886" lon="3.53734">
        <ele>404.49</ele>
        <time>2014-06-21T13:14:07Z</time>
      </trkpt>
      <trkpt lat="46.07821" lon="3.53689">
        <ele>405.55</ele>
        <time>2014-06-21T13:14:24Z</time>
      </trkpt>
      <trkpt lat="46.07744" lon="3.53708">
        <ele>403.8</ele>
        <time>2014-06-21T13:14:56Z</time>
      </trkpt>
      <trkpt lat="46.07718" lon="3.53807">
        <ele>405.05</ele>
        <time>2014-06-21T13:15:18Z</time>
      </trkpt>
      <trkpt lat="46.07659" lon="3.53871">
        <ele>403.99</ele>
        <time>2014-06-21T13:15:56Z</time>
      </trkpt>
      <trkpt lat="46.07597" lon="3.53936">
        <ele>398.69</ele>
        <time>2014-06-21T13:16:08Z</time>
      </trkpt>
      <trkpt lat="46.07561" lon="3.54032">
        <ele>383.55</ele>
        <time>2014-06-21T13:16:40Z</time>
      </trkpt>
      <trkpt lat="46.07512" lon="3.54112">
        <ele>366.06</ele>
        <time>2014-06-21T13:18:01Z</time>
      </trkpt>
      <trkpt lat="46.07451" lon="3.54172">
        <ele>363.55</ele>
        <time>2014-06-21T13:18:23Z</time>
      </trkpt>
      <trkpt lat="46.07403" lon="3.54249">
        <ele>361.57</ele>
        <time>2014-06-21T13:18:43Z</time>
      </trkpt>
      <trkpt lat="46.07378" lon="3.54348">
        <ele>356.13</ele>
        <time>2014-06-21T13:18:58Z</time>
      </trkpt>
      <trkpt lat="46.07366" lon="3.54457">
        <ele>343.91</ele>
        <time>2014-06-21T13:19:13Z</time>
      </trkpt>
      <trkpt lat="46.07348" lon="3.54558">
        <ele>346.51</ele>
        <time>2014-06-21T13:19:26Z</time>
      </trkpt>
      <trkpt lat="46.07344" lon="3.54665">
        <ele>352.97</ele>
        <time>2014-06-21T13:19:40Z</time>
      </trkpt>
      <trkpt lat="46.07334" lon="3.54773">
        <ele>350.15</ele>
        <time>2014-06-21T13:19:52Z</time>
      </trkpt>
      <trkpt lat="46.07307" lon="3.54869">
        <ele>347.55</ele>
        <time>2014-06-21T13:20:11Z</time>
      </trkpt>
      <trkpt lat="46.07277" lon="3.54964">
        <ele>347.55</ele>
        <time>2014-06-21T13:20:35Z</time>
      </trkpt>
      <trkpt lat="46.07281" lon="3.55073">
        <ele>351.05</ele>
        <time>2014-06-21T13:21:01Z</time>
      </trkpt>
      <trkpt lat="46.07295" lon="3.55187">
        <ele>353.55</ele>
        <time>2014-06-21T13:21:32Z</time>
      </trkpt>
      <trkpt lat="46.07245" lon="3.55266">
        <ele>354.05</ele>
        <time>2014-06-21T13:22:39Z</time>
      </trkpt>
      <trkpt lat="46.07188" lon="3.55328">
        <ele>351.05</ele>
        <time>2014-06-21T13:23:45Z</time>
      </trkpt>
      <trkpt lat="46.07115" lon="3.55322">
        <ele>358.05</ele>
        <time>2014-06-21T13:24:42Z</time>
      </trkpt>
      <trkpt lat="46.07042" lon="3.55309">
        <ele>361.55</ele>
        <time>2014-06-21T13:25:12Z</time>
      </trkpt>
      <trkpt lat="46.0697" lon="3.55303">
        <ele>366.05</ele>
        <time>2014-06-21T13:25:47Z</time>
      </trkpt>
      <trkpt lat="46.06902" lon="3.55339">
        <ele>371.49</ele>
        <time>2014-06-21T13:26:29Z</time>
      </trkpt>
      <trkpt lat="46.0684" lon="3.55393">
        <ele>377.55</ele>
        <time>2014-06-21T13:27:12Z</time>
      </trkpt>
      <trkpt lat="46.06783" lon="3.55459">
        <ele>382.43</ele>
        <time>2014-06-21T13:27:47Z</time>
      </trkpt>
      <trkpt lat="46.06711" lon="3.5547">
        <ele>394.49</ele>
        <time>2014-06-21T13:30:01Z</time>
      </trkpt>
      <trkpt lat="46.0664" lon="3.55451">
        <ele>401.04</ele>
        <time>2014-06-21T13:30:28Z</time>
      </trkpt>
      <trkpt lat="46.06598" lon="3.55539">
        <ele>405.43</ele>
        <time>2014-06-21T13:30:57Z</time>
      </trkpt>
      <trkpt lat="46.06591" lon="3.55646">
        <ele>408.55</ele>
        <time>2014-06-21T13:31:23Z</time>
      </trkpt>
      <trkpt lat="46.06522" lon="3.55682">
        <ele>415.52</ele>
        <time>2014-06-21T13:31:45Z</time>
      </trkpt>
      <trkpt lat="46.06448" lon="3.55715">
        <ele>428.46</ele>
        <time>2014-06-21T13:32:04Z</time>
      </trkpt>
      <trkpt lat="46.06431" lon="3.55815">
        <ele>431.55</ele>
        <time>2014-06-21T13:32:38Z</time>
      </trkpt>
      <trkpt lat="46.06479" lon="3.55893">
        <ele>420.99</ele>
        <time>2014-06-21T13:32:51Z</time>
      </trkpt>
      <trkpt lat="46.06533" lon="3.55976">
        <ele>414.22</ele>
        <time>2014-06-21T13:33:01Z</time>
      </trkpt>
      <trkpt lat="46.06603" lon="3.56006">
        <ele>411.8</ele>
        <time>2014-06-21T13:33:12Z</time>
      </trkpt>
      <trkpt lat="46.06549" lon="3.56077">
        <ele>391.42</ele>
        <time>2014-06-21T13:33:32Z</time>
      </trkpt>
      <trkpt lat="46.06497" lon="3.56157">
        <ele>380.57</ele>
        <time>2014-06-21T13:35:06Z</time>
      </trkpt>
      <trkpt lat="46.06439" lon="3.56225">
        <ele>374.62</ele>
        <time>2014-06-21T13:35:38Z</time>
      </trkpt>
      <trkpt lat="46.06386" lon="3.56305">
        <ele>369.72</ele>
        <time>2014-06-21T13:35:55Z</time>
      </trkpt>
      <trkpt lat="46.06329" lon="3.56378">
        <ele>371.29</ele>
        <time>2014-06-21T13:36:11Z</time>
      </trkpt>
      <trkpt lat="46.06263" lon="3.56427">
        <ele>372.69</ele>
        <time>2014-06-21T13:36:26Z</time>
      </trkpt>
      <trkpt lat="46.06192" lon="3.56446">
        <ele>373.07</ele>
        <time>2014-06-21T13:36:41Z</time>
      </trkpt>
      <trkpt lat="46.06118" lon="3.56468">
        <ele>375.54</ele>
        <time>2014-06-21T13:36:57Z</time>
      </trkpt>
      <trkpt lat="46.0605" lon="3.56504">
        <ele>379.27</ele>
        <time>2014-06-21T13:37:12Z</time>
      </trkpt>
      <trkpt lat="46.05978" lon="3.56554">
        <ele>383.01</ele>
        <time>2014-06-21T13:37:26Z</time>
      </trkpt>
      <trkpt lat="46.05905" lon="3.56532">
        <ele>373.55</ele>
        <time>2014-06-21T13:40:17Z</time>
      </trkpt>
      <trkpt lat="46.05879" lon="3.56436">
        <ele>376.52</ele>
        <time>2014-06-21T13:41:10Z</time>
      </trkpt>
      <trkpt lat="46.0592" lon="3.56348">
        <ele>389.98</ele>
        <time>2014-06-21T13:45:30Z</time>
      </trkpt>
      <trkpt lat="46.05972" lon="3.56275">
        <ele>403.49</ele>
        <time>2014-06-21T13:46:17Z</time>
      </trkpt>
      <trkpt lat="46.06002" lon="3.56178">
        <ele>413.42</ele>
        <time>2014-06-21T13:47:11Z</time>
      </trkpt>
      <trkpt lat="46.05973" lon="3.56081">
        <ele>424.55</ele>
        <time>2014-06-21T13:48:32Z</time>
      </trkpt>
      <trkpt lat="46.05904" lon="3.56047">
        <ele>421.55</ele>
        <time>2014-06-21T13:49:16Z</time>
      </trkpt>
      <trkpt lat="46.05832" lon="3.56051">
        <ele>424.41</ele>
        <time>2014-06-21T13:49:50Z</time>
      </trkpt>
      <trkpt lat="46.05761" lon="3.56039">
        <ele>435.98</ele>
        <time>2014-06-21T13:50:31Z</time>
      </trkpt>
      <trkpt lat="46.057" lon="3.55981">
        <ele>447.48</ele>
        <time>2014-06-21T13:51:17Z</time>
      </trkpt>
      <trkpt lat="46.05636" lon="3.55933">
        <ele>452.43</ele>
        <time>2014-06-21T13:51:50Z</time>
      </trkpt>
      <trkpt lat="46.05565" lon="3.55912">
        <ele>454.68</ele>
        <time>2014-06-21T13:53:10Z</time>
      </trkpt>
      <trkpt lat="46.05504" lon="3.55856">
        <ele>458.42</ele>
        <time>2014-06-21T13:54:09Z</time>
      </trkpt>
      <trkpt lat="46.0547" lon="3.55764">
        <ele>503.49</ele>
        <time>2014-06-21T14:03:56Z</time>
      </trkpt>
      <trkpt lat="46.05399" lon="3.55742">
        <ele>509.49</ele>
        <time>2014-06-21T14:04:44Z</time>
      </trkpt>
      <trkpt lat="46.05329" lon="3.55708">
        <ele>514.49</ele>
        <time>2014-06-21T14:05:28Z</time>
      </trkpt>
      <trkpt lat="46.05258" lon="3.55674">
        <ele>516.55</ele>
        <time>2014-06-21T14:05:55Z</time>
      </trkpt>
      <trkpt lat="46.05182" lon="3.55676">
        <ele>519.43</ele>
        <time>2014-06-21T14:06:20Z</time>
      </trkpt>
      <trkpt lat="46.05114" lon="3.55715">
        <ele>520.55</ele>
        <time>2014-06-21T14:06:42Z</time>
      </trkpt>
      <trkpt lat="46.0511" lon="3.55822">
        <ele>531.43</ele>
        <time>2014-06-21T14:07:34Z</time>
      </trkpt>
      <trkpt lat="46.05142" lon="3.55918">
        <ele>529.87</ele>
        <time>2014-06-21T14:07:43Z</time>
      </trkpt>
      <trkpt lat="46.0515" lon="3.56021">
        <ele>524.55</ele>
        <time>2014-06-21T14:08:05Z</time>
      </trkpt>
      <trkpt lat="46.05075" lon="3.56017">
        <ele>519.68</ele>
        <time>2014-06-21T14:08:26Z</time>
      </trkpt>
      <trkpt lat="46.05016" lon="3.56077">
        <ele>516.58</ele>
        <time>2014-06-21T14:08:44Z</time>
      </trkpt>
      <trkpt lat="46.05025" lon="3.5618">
        <ele>515.55</ele>
        <time>2014-06-21T14:08:59Z</time>
      </trkpt>
      <trkpt lat="46.05024" lon="3.56287">
        <ele>511.86</ele>
        <time>2014-06-21T14:09:27Z</time>
      </trkpt>
      <trkpt lat="46.04999" lon="3.56388">
        <ele>497.89</ele>
        <time>2014-06-21T14:09:40Z</time>
      </trkpt>
      <trkpt lat="46.05013" lon="3.56498">
        <ele>489.54</ele>
        <time>2014-06-21T14:09:52Z</time>
      </trkpt>
      <trkpt lat="46.05022" lon="3.56603">
        <ele>482.3</ele>
        <time>2014-06-21T14:10:01Z</time>
      </trkpt>
      <trkpt lat="46.0501" lon="3.56708">
        <ele>476.27</ele>
        <time>2014-06-21T14:10:18Z</time>
      </trkpt>
      <trkpt lat="46.04949" lon="3.56772">
        <ele>464.01</ele>
        <time>2014-06-21T14:12:30Z</time>
      </trkpt>
      <trkpt lat="46.04878" lon="3.56749">
        <ele>466.3</ele>
        <time>2014-06-21T14:12:40Z</time>
      </trkpt>
      <trkpt lat="46.04821" lon="3.56822">
        <ele>449.12</ele>
        <time>2014-06-21T14:15:25Z</time>
      </trkpt>
      <trkpt lat="46.04783" lon="3.56914">
        <ele>447.55</ele>
        <time>2014-06-21T14:15:57Z</time>
      </trkpt>
      <trkpt lat="46.04713" lon="3.56957">
        <ele>449.43</ele>
        <time>2014-06-21T14:16:17Z</time>
      </trkpt>
      <trkpt lat="46.0464" lon="3.56972">
        <ele>454.55</ele>
        <time>2014-06-21T14:25:13Z</time>
      </trkpt>
      <trkpt lat="46.04581" lon="3.57036">
        <ele>455.55</ele>
        <time>2014-06-21T14:25:32Z</time>
      </trkpt>
      <trkpt lat="46.0452" lon="3.57094">
        <ele>455.55</ele>
        <time>2014-06-21T14:25:57Z</time>
      </trkpt>
      <trkpt lat="46.04448" lon="3.57122">
        <ele>459.49</ele>
        <time>2014-06-21T14:26:11Z</time>
      </trkpt>
      <trkpt lat="46.04385" lon="3.5718">
        <ele>463.39</ele>
        <time>2014-06-21T14:26:26Z</time>
      </trkpt>
      <trkpt lat="46.04313" lon="3.57193">
        <ele>463.55</ele>
        <time>2014-06-21T14:26:41Z</time>
      </trkpt>
      <trkpt lat="46.04239" lon="3.57225">
        <ele>465.54</ele>
        <time>2014-06-21T14:26:50Z</time>
      </trkpt>
      <trkpt lat="46.04172" lon="3.57264">
        <ele>465.49</ele>
        <time>2014-06-21T14:27:02Z</time>
      </trkpt>
      <trkpt lat="46.04104" lon="3.57328">
        <ele>471.05</ele>
        <time>2014-06-21T14:27:57Z</time>
      </trkpt>
      <trkpt lat="46.04048" lon="3.57403">
        <ele>468.55</ele>
        <time>2014-06-21T14:29:02Z</time>
      </trkpt>
      <trkpt lat="46.03982" lon="3.57457">
        <ele>471.05</ele>
        <time>2014-06-21T14:29:57Z</time>
      </trkpt>
      <trkpt lat="46.0391" lon="3.57461">
        <ele>476.55</ele>
        <time>2014-06-21T14:31:03Z</time>
      </trkpt>
      <trkpt lat="46.03837" lon="3.57459">
        <ele>481.55</ele>
        <time>2014-06-21T14:31:59Z</time>
      </trkpt>
      <trkpt lat="46.03765" lon="3.57481">
        <ele>486.49</ele>
        <time>2014-06-21T14:32:41Z</time>
      </trkpt>
      <trkpt lat="46.03696" lon="3.57515">
        <ele>494.48</ele>
        <time>2014-06-21T14:33:33Z</time>
      </trkpt>
      <trkpt lat="46.03629" lon="3.57553">
        <ele>504.91</ele>
        <time>2014-06-21T14:34:06Z</time>
      </trkpt>
      <trkpt lat="46.03557" lon="3.57566">
        <ele>512.99</ele>
        <time>2014-06-21T14:34:38Z</time>
      </trkpt>
      <trkpt lat="46.03482" lon="3.57569">
        <ele>522.97</ele>
        <time>2014-06-21T14:35:07Z</time>
      </trkpt>
      <trkpt lat="46.0341" lon="3.57553">
        <ele>531.49</ele>
        <time>2014-06-21T14:35:37Z</time>
      </trkpt>
      <trkpt lat="46.03336" lon="3.57553">
        <ele>538.79</ele>
        <time>2014-06-21T14:36:05Z</time>
      </trkpt>
      <trkpt lat="46.03262" lon="3.57545">
        <ele>543.55</ele>
        <time>2014-06-21T14:36:22Z</time>
      </trkpt>
      <trkpt lat="46.0319" lon="3.57536">
        <ele>543.55</ele>
        <time>2014-06-21T14:36:43Z</time>
      </trkpt>
      <trkpt lat="46.03118" lon="3.57541">
        <ele>546.04</ele>
        <time>2014-06-21T14:37:03Z</time>
      </trkpt>
      <trkpt lat="46.03045" lon="3.57541">
        <ele>550.43</ele>
        <time>2014-06-21T14:37:25Z</time>
      </trkpt>
      <trkpt lat="46.02998" lon="3.5762">
        <ele>566.55</ele>
        <time>2014-06-21T14:45:46Z</time>
      </trkpt>
      <trkpt lat="46.02924" lon="3.57616">
        <ele>571.52</ele>
        <time>2014-06-21T14:46:19Z</time>
      </trkpt>
      <trkpt lat="46.0285" lon="3.57631">
        <ele>575.55</ele>
        <time>2014-06-21T14:46:46Z</time>
      </trkpt>
      <trkpt lat="46.0279" lon="3.57569">
        <ele>578.55</ele>
        <time>2014-06-21T14:47:20Z</time>
      </trkpt>
      <trkpt lat="46.02797" lon="3.57463">
        <ele>579.55</ele>
        <time>2014-06-21T14:47:42Z</time>
      </trkpt>
      <trkpt lat="46.02816" lon="3.57363">
        <ele>580.55</ele>
        <time>2014-06-21T14:48:07Z</time>
      </trkpt>
      <trkpt lat="46.02866" lon="3.57287">
        <ele>581.55</ele>
        <time>2014-06-21T14:48:29Z</time>
      </trkpt>
      <trkpt lat="46.02916" lon="3.5721">
        <ele>581.55</ele>
        <time>2014-06-21T14:48:49Z</time>
      </trkpt>
      <trkpt lat="46.02894" lon="3.57109">
        <ele>582.55</ele>
        <time>2014-06-21T14:49:19Z</time>
      </trkpt>
      <trkpt lat="46.02944" lon="3.5703">
        <ele>580.55</ele>
        <time>2014-06-21T14:50:02Z</time>
      </trkpt>
      <trkpt lat="46.02954" lon="3.56927">
        <ele>580.55</ele>
        <time>2014-06-21T14:50:39Z</time>
      </trkpt>
      <trkpt lat="46.02895" lon="3.56858">
        <ele>575.8</ele>
        <time>2014-06-21T14:51:29Z</time>
      </trkpt>
      <trkpt lat="46.02822" lon="3.56871">
        <ele>572.05</ele>
        <time>2014-06-21T14:51:58Z</time>
      </trkpt>
      <trkpt lat="46.02749" lon="3.56875">
        <ele>569.55</ele>
        <time>2014-06-21T14:52:30Z</time>
      </trkpt>
      <trkpt lat="46.02672" lon="3.56878">
        <ele>569.55</ele>
        <time>2014-06-21T14:52:53Z</time>
      </trkpt>
      <trkpt lat="46.026" lon="3.5689">
        <ele>572.43</ele>
        <time>2014-06-21T14:53:19Z</time>
      </trkpt>
      <trkpt lat="46.02532" lon="3.5685">
        <ele>575.43</ele>
        <time>2014-06-21T14:53:53Z</time>
      </trkpt>
      <trkpt lat="46.0246" lon="3.56833">
        <ele>576.55</ele>
        <time>2014-06-21T14:54:26Z</time>
      </trkpt>
      <trkpt lat="46.02392" lon="3.56794">
        <ele>539.62</ele>
        <time>2014-06-21T14:56:15Z</time>
      </trkpt>
      <trkpt lat="46.0232" lon="3.56779">
        <ele>526.59</ele>
        <time>2014-06-21T14:57:26Z</time>
      </trkpt>
      <trkpt lat="46.02272" lon="3.56702">
        <ele>524.55</ele>
        <time>2014-06-21T14:59:31Z</time>
      </trkpt>
      <trkpt lat="46.0226" lon="3.56596">
        <ele>544.04</ele>
        <time>2014-06-21T15:00:17Z</time>
      </trkpt>
      <trkpt lat="46.0229" lon="3.56502">
        <ele>551.55</ele>
        <time>2014-06-21T15:00:35Z</time>
      </trkpt>
      <trkpt lat="46.02297" lon="3.56397">
        <ele>549.87</ele>
        <time>2014-06-21T15:00:50Z</time>
      </trkpt>
      <trkpt lat="46.02283" lon="3.56294">
        <ele>555.09</ele>
        <time>2014-06-21T15:01:03Z</time>
      </trkpt>
      <trkpt lat="46.02284" lon="3.56189">
        <ele>556.55</ele>
        <time>2014-06-21T15:04:26Z</time>
      </trkpt>
      <trkpt lat="46.02297" lon="3.56086">
        <ele>564.47</ele>
        <time>2014-06-21T15:05:45Z</time>
      </trkpt>
      <trkpt lat="46.02225" lon="3.56094">
        <ele>565.55</ele>
        <time>2014-06-21T15:06:30Z</time>
      </trkpt>
      <trkpt lat="46.02147" lon="3.56118">
        <ele>563.55</ele>
        <time>2014-06-21T15:07:23Z</time>
      </trkpt>
      <trkpt lat="46.02077" lon="3.56079">
        <ele>561.58</ele>
        <time>2014-06-21T15:08:06Z</time>
      </trkpt>
      <trkpt lat="46.02073" lon="3.5597">
        <ele>561.05</ele>
        <time>2014-06-21T15:08:48Z</time>
      </trkpt>
      <trkpt lat="46.02136" lon="3.55897">
        <ele>562.05</ele>
        <time>2014-06-21T15:09:31Z</time>
      </trkpt>
      <trkpt lat="46.02204" lon="3.55835">
        <ele>566.54</ele>
        <time>2014-06-21T15:10:12Z</time>
      </trkpt>
      <trkpt lat="46.02276" lon="3.55781">
        <ele>568.57</ele>
        <time>2014-06-21T15:11:08Z</time>
      </trkpt>
      <trkpt lat="46.02321" lon="3.55697">
        <ele>569.55</ele>
        <time>2014-06-21T15:11:33Z</time>
      </trkpt>
      <trkpt lat="46.02378" lon="3.55629">
        <ele>572.05</ele>
        <time>2014-06-21T15:12:02Z</time>
      </trkpt>
      <trkpt lat="46.02429" lon="3.55551">
        <ele>573.55</ele>
        <time>2014-06-21T15:12:27Z</time>
      </trkpt>
      <trkpt lat="46.02469" lon="3.55461">
        <ele>574.55</ele>
        <time>2014-06-21T15:12:51Z</time>
      </trkpt>
      <trkpt lat="46.02507" lon="3.55371">
        <ele>573.55</ele>
        <time>2014-06-21T15:13:16Z</time>
      </trkpt>
      <trkpt lat="46.0256" lon="3.55298">
        <ele>574.52</ele>
        <time>2014-06-21T15:13:57Z</time>
      </trkpt>
      <trkpt lat="46.02559" lon="3.55193">
        <ele>587.49</ele>
        <time>2014-06-21T15:21:49Z</time>
      </trkpt>
      <trkpt lat="46.02578" lon="3.55092">
        <ele>590.55</ele>
        <time>2014-06-21T15:22:22Z</time>
      </trkpt>
      <trkpt lat="46.02619" lon="3.55006">
        <ele>593.49</ele>
        <time>2014-06-21T15:22:50Z</time>
      </trkpt>
      <trkpt lat="46.02658" lon="3.54918">
        <ele>596.43</ele>
        <time>2014-06-21T15:23:10Z</time>
      </trkpt>
      <trkpt lat="46.02665" lon="3.54811">
        <ele>598.51</ele>
        <time>2014-06-21T15:23:21Z</time>
      </trkpt>
      <trkpt lat="46.02654" lon="3.54706">
        <ele>598.55</ele>
        <time>2014-06-21T15:23:36Z</time>
      </trkpt>
      <trkpt lat="46.02645" lon="3.54599">
        <ele>598.3</ele>
        <time>2014-06-21T15:23:54Z</time>
      </trkpt>
      <trkpt lat="46.02665" lon="3.54491">
        <ele>601.48</ele>
        <time>2014-06-21T15:24:07Z</time>
      </trkpt>
      <trkpt lat="46.02664" lon="3.54386">
        <ele>597.74</ele>
        <time>2014-06-21T15:24:15Z</time>
      </trkpt>
      <trkpt lat="46.02632" lon="3.5429">
        <ele>589.93</ele>
        <time>2014-06-21T15:24:23Z</time>
      </trkpt>
      <trkpt lat="46.02591" lon="3.54204">
        <ele>586.56</ele>
        <time>2014-06-21T15:24:40Z</time>
      </trkpt>
      <trkpt lat="46.02603" lon="3.54095">
        <ele>576.89</ele>
        <time>2014-06-21T15:25:08Z</time>
      </trkpt>
      <trkpt lat="46.02622" lon="3.53989">
        <ele>574.8</ele>
        <time>2014-06-21T15:25:21Z</time>
      </trkpt>
      <trkpt lat="46.0263" lon="3.53884">
        <ele>572.05</ele>
        <time>2014-06-21T15:25:35Z</time>
      </trkpt>
      <trkpt lat="46.0261" lon="3.53783">
        <ele>570.08</ele>
        <time>2014-06-21T15:25:47Z</time>
      </trkpt>
      <trkpt lat="46.02682" lon="3.53764">
        <ele>571.55</ele>
        <time>2014-06-21T15:26:09Z</time>
      </trkpt>
      <trkpt lat="46.02759" lon="3.53768">
        <ele>571.3</ele>
        <time>2014-06-21T15:26:26Z</time>
      </trkpt>
      <trkpt lat="46.02831" lon="3.53732">
        <ele>568.4</ele>
        <time>2014-06-21T15:26:37Z</time>
      </trkpt>
      <trkpt lat="46.02896" lon="3.5368">
        <ele>566.05</ele>
        <time>2014-06-21T15:26:50Z</time>
      </trkpt>
      <trkpt lat="46.02961" lon="3.53616">
        <ele>568.02</ele>
        <time>2014-06-21T15:27:05Z</time>
      </trkpt>
      <trkpt lat="46.03029" lon="3.53573">
        <ele>567.18</ele>
        <time>2014-06-21T15:27:16Z</time>
      </trkpt>
      <trkpt lat="46.03085" lon="3.53507">
        <ele>563.56</ele>
        <time>2014-06-21T15:27:32Z</time>
      </trkpt>
      <trkpt lat="46.03143" lon="3.53438">
        <ele>562.6</ele>
        <time>2014-06-21T15:27:45Z</time>
      </trkpt>
      <trkpt lat="46.03212" lon="3.53389">
        <ele>563.05</ele>
        <time>2014-06-21T15:28:01Z</time>
      </trkpt>
      <trkpt lat="46.03282" lon="3.5335">
        <ele>565.26</ele>
        <time>2014-06-21T15:28:44Z</time>
      </trkpt>
      <trkpt lat="46.03356" lon="3.53328">
        <ele>564.57</ele>
        <time>2014-06-21T15:28:56Z</time>
      </trkpt>
      <trkpt lat="46.03427" lon="3.5335">
        <ele>567.55</ele>
        <time>2014-06-21T15:29:20Z</time>
      </trkpt>
      <trkpt lat="46.03509" lon="3.53348">
        <ele>561.06</ele>
        <time>2014-06-21T15:30:11Z</time>
      </trkpt>
      <trkpt lat="46.03586" lon="3.53335">
        <ele>551.06</ele>
        <time>2014-06-21T15:31:07Z</time>
      </trkpt>
      <trkpt lat="46.03658" lon="3.53324">
        <ele>549.55</ele>
        <time>2014-06-21T15:31:44Z</time>
      </trkpt>
      <trkpt lat="46.03731" lon="3.53301">
        <ele>552.49</ele>
        <time>2014-06-21T15:32:11Z</time>
      </trkpt>
      <trkpt lat="46.03798" lon="3.5326">
        <ele>550.62</ele>
        <time>2014-06-21T15:32:32Z</time>
      </trkpt>
      <trkpt lat="46.03868" lon="3.53234">
        <ele>546.84</ele>
        <time>2014-06-21T15:32:55Z</time>
      </trkpt>
      <trkpt lat="46.03935" lon="3.53191">
        <ele>540.68</ele>
        <time>2014-06-21T15:33:22Z</time>
      </trkpt>
      <trkpt lat="46.03948" lon="3.53294">
        <ele>540.55</ele>
        <time>2014-06-21T15:34:08Z</time>
      </trkpt>
      <trkpt lat="46.03933" lon="3.53399">
        <ele>542.55</ele>
        <time>2014-06-21T15:34:29Z</time>
      </trkpt>
      <trkpt lat="46.03912" lon="3.53502">
        <ele>545.55</ele>
        <time>2014-06-21T15:34:45Z</time>
      </trkpt>
      <trkpt lat="46.03878" lon="3.53599">
        <ele>545.55</ele>
        <time>2014-06-21T15:35:01Z</time>
      </trkpt>
      <trkpt lat="46.03811" lon="3.53642">
        <ele>545.55</ele>
        <time>2014-06-21T15:35:13Z</time>
      </trkpt>
      <trkpt lat="46.03755" lon="3.53708">
        <ele>545.55</ele>
        <time>2014-06-21T15:35:27Z</time>
      </trkpt>
      <trkpt lat="46.03755" lon="3.53816">
        <ele>546.55</ele>
        <time>2014-06-21T15:35:49Z</time>
      </trkpt>
      <trkpt lat="46.03773" lon="3.53916">
        <ele>546.55</ele>
        <time>2014-06-21T15:36:11Z</time>
      </trkpt>
      <trkpt lat="46.03763" lon="3.54022">
        <ele>548.43</ele>
        <time>2014-06-21T15:36:35Z</time>
      </trkpt>
      <trkpt lat="46.03834" lon="3.54071">
        <ele>562</ele>
        <time>2014-06-21T15:36:50Z</time>
      </trkpt>
      <trkpt lat="46.03899" lon="3.54116">
        <ele>567.39</ele>
        <time>2014-06-21T15:36:58Z</time>
      </trkpt>
      <trkpt lat="46.0397" lon="3.54165">
        <ele>564.72</ele>
        <time>2014-06-21T15:37:06Z</time>
      </trkpt>
      <trkpt lat="46.04038" lon="3.5421">
        <ele>562.69</ele>
        <time>2014-06-21T15:37:14Z</time>
      </trkpt>
      <trkpt lat="46.04107" lon="3.5424">
        <ele>559.09</ele>
        <time>2014-06-21T15:37:25Z</time>
      </trkpt>
      <trkpt lat="46.04179" lon="3.54264">
        <ele>557.55</ele>
        <time>2014-06-21T15:37:45Z</time>
      </trkpt>
      <trkpt lat="46.0425" lon="3.54294">
        <ele>556.55</ele>
        <time>2014-06-21T15:38:11Z</time>
      </trkpt>
      <trkpt lat="46.04281" lon="3.54388">
        <ele>556.55</ele>
        <time>2014-06-21T15:38:40Z</time>
      </trkpt>
      <trkpt lat="46.04319" lon="3.54479">
        <ele>558.27</ele>
        <time>2014-06-21T15:38:56Z</time>
      </trkpt>
      <trkpt lat="46.04387" lon="3.54541">
        <ele>559.55</ele>
        <time>2014-06-21T15:39:19Z</time>
      </trkpt>
      <trkpt lat="46.04437" lon="3.54618">
        <ele>558.55</ele>
        <time>2014-06-21T15:39:47Z</time>
      </trkpt>
      <trkpt lat="46.04434" lon="3.54723">
        <ele>556.55</ele>
        <time>2014-06-21T15:40:24Z</time>
      </trkpt>
      <trkpt lat="46.04505" lon="3.54749">
        <ele>569.05</ele>
        <time>2014-06-21T15:41:12Z</time>
      </trkpt>
      <trkpt lat="46.04583" lon="3.5471">
        <ele>578.01</ele>
        <time>2014-06-21T15:42:18Z</time>
      </trkpt>
      <trkpt lat="46.04651" lon="3.54678">
        <ele>578.55</ele>
        <time>2014-06-21T15:42:56Z</time>
      </trkpt>
      <trkpt lat="46.04717" lon="3.54627">
        <ele>578.55</ele>
        <time>2014-06-21T15:43:22Z</time>
      </trkpt>
      <trkpt lat="46.04785" lon="3.54584">
        <ele>578.67</ele>
        <time>2014-06-21T15:43:47Z</time>
      </trkpt>
      <trkpt lat="46.04858" lon="3.5456">
        <ele>577.55</ele>
        <time>2014-06-21T15:44:09Z</time>
      </trkpt>
      <trkpt lat="46.0493" lon="3.54569">
        <ele>576.55</ele>
        <time>2014-06-21T15:44:43Z</time>
      </trkpt>
      <trkpt lat="46.04995" lon="3.54622">
        <ele>573.62</ele>
        <time>2014-06-21T15:45:10Z</time>
      </trkpt>
      <trkpt lat="46.05066" lon="3.54644">
        <ele>574.05</ele>
        <time>2014-06-21T15:45:35Z</time>
      </trkpt>
      <trkpt lat="46.05136" lon="3.5468">
        <ele>575.74</ele>
        <time>2014-06-21T15:46:05Z</time>
      </trkpt>
      <trkpt lat="46.05205" lon="3.54728">
        <ele>574.93</ele>
        <time>2014-06-21T15:46:21Z</time>
      </trkpt>
      <trkpt lat="46.05278" lon="3.54736">
        <ele>570.84</ele>
        <time>2014-06-21T15:46:32Z</time>
      </trkpt>
      <trkpt lat="46.05353" lon="3.5476">
        <ele>567.83</ele>
        <time>2014-06-21T15:46:45Z</time>
      </trkpt>
      <trkpt lat="46.05428" lon="3.54788">
        <ele>566.37</ele>
        <time>2014-06-21T15:46:58Z</time>
      </trkpt>
      <trkpt lat="46.05501" lon="3.54794">
        <ele>567.64</ele>
        <time>2014-06-21T15:47:06Z</time>
      </trkpt>
      <trkpt lat="46.05585" lon="3.54809">
        <ele>563.37</ele>
        <time>2014-06-21T15:47:14Z</time>
      </trkpt>
      <trkpt lat="46.05662" lon="3.54815">
        <ele>544.63</ele>
        <time>2014-06-21T15:47:20Z</time>
      </trkpt>
      <trkpt lat="46.0574" lon="3.54805">
        <ele>528.59</ele>
        <time>2014-06-21T15:47:29Z</time>
      </trkpt>
      <trkpt lat="46.05783" lon="3.54719">
        <ele>512.59</ele>
        <time>2014-06-21T15:48:02Z</time>
      </trkpt>
      <trkpt lat="46.05762" lon="3.54618">
        <ele>499.1</ele>
        <time>2014-06-21T15:48:18Z</time>
      </trkpt>
      <trkpt lat="46.05791" lon="3.54517">
        <ele>499.55</ele>
        <time>2014-06-21T15:48:38Z</time>
      </trkpt>
      <trkpt lat="46.05784" lon="3.54408">
        <ele>496.38</ele>
        <time>2014-06-21T15:48:48Z</time>
      </trkpt>
      <trkpt lat="46.05781" lon="3.54292">
        <ele>494.83</ele>
        <time>2014-06-21T15:48:57Z</time>
      </trkpt>
      <trkpt lat="46.05778" lon="3.54187">
        <ele>494.55</ele>
        <time>2014-06-21T15:49:07Z</time>
      </trkpt>
      <trkpt lat="46.05821" lon="3.54099">
        <ele>494.57</ele>
        <time>2014-06-21T15:49:22Z</time>
      </trkpt>
      <trkpt lat="46.05835" lon="3.53987">
        <ele>494.55</ele>
        <time>2014-06-21T15:50:05Z</time>
      </trkpt>
      <trkpt lat="46.05854" lon="3.53882">
        <ele>492.55</ele>
        <time>2014-06-21T15:50:41Z</time>
      </trkpt>
      <trkpt lat="46.05812" lon="3.53792">
        <ele>490.56</ele>
        <time>2014-06-21T15:51:15Z</time>
      </trkpt>
      <trkpt lat="46.05786" lon="3.53683">
        <ele>492.05</ele>
        <time>2014-06-21T15:52:18Z</time>
      </trkpt>
      <trkpt lat="46.05777" lon="3.5358">
        <ele>503.04</ele>
        <time>2014-06-21T15:53:20Z</time>
      </trkpt>
      <trkpt lat="46.05775" lon="3.53472">
        <ele>509.49</ele>
        <time>2014-06-21T15:54:05Z</time>
      </trkpt>
      <trkpt lat="46.05799" lon="3.53374">
        <ele>513.55</ele>
        <time>2014-06-21T15:55:01Z</time>
      </trkpt>
      <trkpt lat="46.0583" lon="3.53468">
        <ele>524.3</ele>
        <time>2014-06-21T15:58:53Z</time>
      </trkpt>
      <trkpt lat="46.05862" lon="3.53562">
        <ele>530.02</ele>
        <time>2014-06-21T15:59:20Z</time>
      </trkpt>
      <trkpt lat="46.05918" lon="3.53635">
        <ele>535.25</ele>
        <time>2014-06-21T15:59:38Z</time>
      </trkpt>
      <trkpt lat="46.05977" lon="3.53698">
        <ele>532.48</ele>
        <time>2014-06-21T15:59:53Z</time>
      </trkpt>
      <trkpt lat="46.06051" lon="3.53734">
        <ele>522.69</ele>
        <time>2014-06-21T16:04:46Z</time>
      </trkpt>
      <trkpt lat="46.06114" lon="3.53798">
        <ele>518.63</ele>
        <time>2014-06-21T16:04:55Z</time>
      </trkpt>
      <trkpt lat="46.06177" lon="3.53856">
        <ele>518.55</ele>
        <time>2014-06-21T16:05:03Z</time>
      </trkpt>
      <trkpt lat="46.06243" lon="3.53899">
        <ele>520.46</ele>
        <time>2014-06-21T16:05:09Z</time>
      </trkpt>
      <trkpt lat="46.06312" lon="3.53931">
        <ele>520.61</ele>
        <time>2014-06-21T16:05:17Z</time>
      </trkpt>
      <trkpt lat="46.06368" lon="3.54002">
        <ele>520.55</ele>
        <time>2014-06-21T16:05:25Z</time>
      </trkpt>
      <trkpt lat="46.06442" lon="3.54024">
        <ele>517.02</ele>
        <time>2014-06-21T16:05:33Z</time>
      </trkpt>
      <trkpt lat="46.06519" lon="3.54049">
        <ele>513.57</ele>
        <time>2014-06-21T16:05:43Z</time>
      </trkpt>
      <trkpt lat="46.06593" lon="3.54032">
        <ele>503.05</ele>
        <time>2014-06-21T16:07:40Z</time>
      </trkpt>
      <trkpt lat="46.0656" lon="3.53938">
        <ele>469.66</ele>
        <time>2014-06-21T16:08:02Z</time>
      </trkpt>
      <trkpt lat="46.06497" lon="3.53869">
        <ele>465.56</ele>
        <time>2014-06-21T16:08:18Z</time>
      </trkpt>
      <trkpt lat="46.06473" lon="3.53766">
        <ele>470.52</ele>
        <time>2014-06-21T16:09:15Z</time>
      </trkpt>
      <trkpt lat="46.06512" lon="3.5367">
        <ele>474.54</ele>
        <time>2014-06-21T16:10:09Z</time>
      </trkpt>
      <trkpt lat="46.0653" lon="3.53562">
        <ele>480.05</ele>
        <time>2014-06-21T16:11:04Z</time>
      </trkpt>
      <trkpt lat="46.06498" lon="3.53468">
        <ele>484.43</ele>
        <time>2014-06-21T16:11:42Z</time>
      </trkpt>
      <trkpt lat="46.06468" lon="3.53369">
        <ele>490.3</ele>
        <time>2014-06-21T16:12:35Z</time>
      </trkpt>
      <trkpt lat="46.06448" lon="3.53268">
        <ele>495.52</ele>
        <time>2014-06-21T16:13:14Z</time>
      </trkpt>
      <trkpt lat="46.0644" lon="3.53163">
        <ele>502.43</ele>
        <time>2014-06-21T16:13:54Z</time>
      </trkpt>
      <trkpt lat="46.06442" lon="3.53056">
        <ele>507.05</ele>
        <time>2014-06-21T16:14:23Z</time>
      </trkpt>
      <trkpt lat="46.06468" lon="3.52957">
        <ele>514.42</ele>
        <time>2014-06-21T16:15:04Z</time>
      </trkpt>
      <trkpt lat="46.06534" lon="3.52912">
        <ele>521.3</ele>
        <time>2014-06-21T16:15:39Z</time>
      </trkpt>
      <trkpt lat="46.06464" lon="3.5294">
        <ele>525.62</ele>
        <time>2014-06-21T16:21:44Z</time>
      </trkpt>
      <trkpt lat="46.06535" lon="3.5291">
        <ele>529.02</ele>
        <time>2014-06-21T16:24:24Z</time>
      </trkpt>
      <trkpt lat="46.06601" lon="3.52856">
        <ele>530.42</ele>
        <time>2014-06-21T16:25:32Z</time>
      </trkpt>
      <trkpt lat="46.06635" lon="3.52764">
        <ele>529.18</ele>
        <time>2014-06-21T16:25:42Z</time>
      </trkpt>
      <trkpt lat="46.06691" lon="3.52685">
        <ele>528.13</ele>
        <time>2014-06-21T16:25:48Z</time>
      </trkpt>
      <trkpt lat="46.06764" lon="3.52728">
        <ele>537.14</ele>
        <time>2014-06-21T16:25:57Z</time>
      </trkpt>
      <trkpt lat="46.06822" lon="3.52796">
        <ele>534.57</ele>
        <time>2014-06-21T16:26:07Z</time>
      </trkpt>
      <trkpt lat="46.06887" lon="3.52846">
        <ele>533.8</ele>
        <time>2014-06-21T16:26:16Z</time>
      </trkpt>
      <trkpt lat="46.0696" lon="3.52871">
        <ele>527.86</ele>
        <time>2014-06-21T16:26:26Z</time>
      </trkpt>
      <trkpt lat="46.07028" lon="3.52833">
        <ele>523.9</ele>
        <time>2014-06-21T16:26:37Z</time>
      </trkpt>
      <trkpt lat="46.07077" lon="3.52756">
        <ele>521.12</ele>
        <time>2014-06-21T16:26:47Z</time>
      </trkpt>
      <trkpt lat="46.07144" lon="3.52715">
        <ele>514.93</ele>
        <time>2014-06-21T16:27:00Z</time>
      </trkpt>
      <trkpt lat="46.07215" lon="3.527">
        <ele>512.81</ele>
        <time>2014-06-21T16:27:08Z</time>
      </trkpt>
      <trkpt lat="46.07288" lon="3.52655">
        <ele>506.52</ele>
        <time>2014-06-21T16:27:17Z</time>
      </trkpt>
      <trkpt lat="46.0736" lon="3.52612">
        <ele>495.02</ele>
        <time>2014-06-21T16:27:31Z</time>
      </trkpt>
      <trkpt lat="46.07429" lon="3.52565">
        <ele>491.81</ele>
        <time>2014-06-21T16:27:44Z</time>
      </trkpt>
      <trkpt lat="46.07481" lon="3.52494">
        <ele>490.06</ele>
        <time>2014-06-21T16:27:56Z</time>
      </trkpt>
      <trkpt lat="46.07533" lon="3.52419">
        <ele>490.55</ele>
        <time>2014-06-21T16:28:09Z</time>
      </trkpt>
      <trkpt lat="46.07591" lon="3.52352">
        <ele>492.54</ele>
        <time>2014-06-21T16:28:25Z</time>
      </trkpt>
      <trkpt lat="46.07648" lon="3.52288">
        <ele>494.49</ele>
        <time>2014-06-21T16:28:44Z</time>
      </trkpt>
      <trkpt lat="46.0771" lon="3.52226">
        <ele>496.49</ele>
        <time>2014-06-21T16:29:05Z</time>
      </trkpt>
      <trkpt lat="46.0777" lon="3.52161">
        <ele>497.55</ele>
        <time>2014-06-21T16:29:28Z</time>
      </trkpt>
      <trkpt lat="46.0783" lon="3.52101">
        <ele>501.3</ele>
        <time>2014-06-21T16:29:50Z</time>
      </trkpt>
      <trkpt lat="46.07897" lon="3.52056">
        <ele>509.29</ele>
        <time>2014-06-21T16:30:13Z</time>
      </trkpt>
      <trkpt lat="46.07967" lon="3.52026">
        <ele>518.54</ele>
        <time>2014-06-21T16:30:31Z</time>
      </trkpt>
      <trkpt lat="46.08039" lon="3.52015">
        <ele>518.55</ele>
        <time>2014-06-21T16:30:51Z</time>
      </trkpt>
      <trkpt lat="46.08112" lon="3.52017">
        <ele>521.22</ele>
        <time>2014-06-21T16:31:08Z</time>
      </trkpt>
      <trkpt lat="46.08187" lon="3.51994">
        <ele>527.37</ele>
        <time>2014-06-21T16:31:21Z</time>
      </trkpt>
      <trkpt lat="46.08258" lon="3.51949">
        <ele>524.26</ele>
        <time>2014-06-21T16:31:32Z</time>
      </trkpt>
      <trkpt lat="46.08319" lon="3.51884">
        <ele>521.68</ele>
        <time>2014-06-21T16:31:42Z</time>
      </trkpt>
      <trkpt lat="46.08371" lon="3.51811">
        <ele>520.58</ele>
        <time>2014-06-21T16:31:51Z</time>
      </trkpt>
      <trkpt lat="46.08427" lon="3.51734">
        <ele>520.55</ele>
        <time>2014-06-21T16:32:01Z</time>
      </trkpt>
      <trkpt lat="46.08486" lon="3.51659">
        <ele>519.56</ele>
        <time>2014-06-21T16:32:11Z</time>
      </trkpt>
      <trkpt lat="46.08543" lon="3.51582">
        <ele>517.59</ele>
        <time>2014-06-21T16:32:21Z</time>
      </trkpt>
      <trkpt lat="46.08594" lon="3.51507">
        <ele>516.68</ele>
        <time>2014-06-21T16:32:31Z</time>
      </trkpt>
      <trkpt lat="46.08636" lon="3.51419">
        <ele>516.55</ele>
        <time>2014-06-21T16:32:41Z</time>
      </trkpt>
      <trkpt lat="46.08669" lon="3.51324">
        <ele>515.68</ele>
        <time>2014-06-21T16:32:51Z</time>
      </trkpt>
      <trkpt lat="46.08692" lon="3.51219">
        <ele>512.82</ele>
        <time>2014-06-21T16:33:00Z</time>
      </trkpt>
      <trkpt lat="46.08703" lon="3.51116">
        <ele>510.81</ele>
        <time>2014-06-21T16:33:09Z</time>
      </trkpt>
      <trkpt lat="46.08696" lon="3.51005">
        <ele>509.56</ele>
        <time>2014-06-21T16:33:20Z</time>
      </trkpt>
      <trkpt lat="46.08664" lon="3.5091">
        <ele>510.54</ele>
        <time>2014-06-21T16:33:32Z</time>
      </trkpt>
      <trkpt lat="46.08614" lon="3.50833">
        <ele>513.54</ele>
        <time>2014-06-21T16:33:46Z</time>
      </trkpt>
      <trkpt lat="46.08567" lon="3.50749">
        <ele>513.55</ele>
        <time>2014-06-21T16:34:05Z</time>
      </trkpt>
      <trkpt lat="46.0853" lon="3.50655">
        <ele>513.76</ele>
        <time>2014-06-21T16:34:21Z</time>
      </trkpt>
      <trkpt lat="46.08487" lon="3.50569">
        <ele>517.53</ele>
        <time>2014-06-21T16:34:31Z</time>
      </trkpt>
      <trkpt lat="46.0845" lon="3.50477">
        <ele>513.51</ele>
        <time>2014-06-21T16:34:39Z</time>
      </trkpt>
      <trkpt lat="46.08434" lon="3.50372">
        <ele>508.72</ele>
        <time>2014-06-21T16:34:47Z</time>
      </trkpt>
      <trkpt lat="46.08441" lon="3.50256">
        <ele>505.12</ele>
        <time>2014-06-21T16:34:57Z</time>
      </trkpt>
      <trkpt lat="46.0848" lon="3.50161">
        <ele>501.21</ele>
        <time>2014-06-21T16:35:06Z</time>
      </trkpt>
      <trkpt lat="46.08545" lon="3.50101">
        <ele>498.28</ele>
        <time>2014-06-21T16:35:17Z</time>
      </trkpt>
      <trkpt lat="46.08614" lon="3.50067">
        <ele>496.75</ele>
        <time>2014-06-21T16:35:26Z</time>
      </trkpt>
      <trkpt lat="46.0869" lon="3.50039">
        <ele>492.75</ele>
        <time>2014-06-21T16:35:36Z</time>
      </trkpt>
      <trkpt lat="46.08766" lon="3.49994">
        <ele>479.24</ele>
        <time>2014-06-21T16:35:44Z</time>
      </trkpt>
      <trkpt lat="46.08814" lon="3.49917">
        <ele>469.28</ele>
        <time>2014-06-21T16:35:50Z</time>
      </trkpt>
      <trkpt lat="46.08854" lon="3.49829">
        <ele>460.72</ele>
        <time>2014-06-21T16:35:56Z</time>
      </trkpt>
      <trkpt lat="46.08882" lon="3.49726">
        <ele>454.93</ele>
        <time>2014-06-21T16:36:03Z</time>
      </trkpt>
      <trkpt lat="46.08888" lon="3.49621">
        <ele>452.02</ele>
        <time>2014-06-21T16:36:10Z</time>
      </trkpt>
      <trkpt lat="46.08894" lon="3.49505">
        <ele>446.47</ele>
        <time>2014-06-21T16:36:18Z</time>
      </trkpt>
      <trkpt lat="46.089" lon="3.49397">
        <ele>438.68</ele>
        <time>2014-06-21T16:36:25Z</time>
      </trkpt>
      <trkpt lat="46.08885" lon="3.49288">
        <ele>431.91</ele>
        <time>2014-06-21T16:36:34Z</time>
      </trkpt>
      <trkpt lat="46.08846" lon="3.49194">
        <ele>429.81</ele>
        <time>2014-06-21T16:36:43Z</time>
      </trkpt>
      <trkpt lat="46.08865" lon="3.49086">
        <ele>428.68</ele>
        <time>2014-06-21T16:36:54Z</time>
      </trkpt>
      <trkpt lat="46.08879" lon="3.48975">
        <ele>420.65</ele>
        <time>2014-06-21T16:37:06Z</time>
      </trkpt>
      <trkpt lat="46.08894" lon="3.48872">
        <ele>421.55</ele>
        <time>2014-06-21T16:37:18Z</time>
      </trkpt>
      <trkpt lat="46.08917" lon="3.48764">
        <ele>417.14</ele>
        <time>2014-06-21T16:37:35Z</time>
      </trkpt>
      <trkpt lat="46.08949" lon="3.48666">
        <ele>414.55</ele>
        <time>2014-06-21T16:37:55Z</time>
      </trkpt>
      <trkpt lat="46.08977" lon="3.48569">
        <ele>413.55</ele>
        <time>2014-06-21T16:38:13Z</time>
      </trkpt>
      <trkpt lat="46.08997" lon="3.48468">
        <ele>413.52</ele>
        <time>2014-06-21T16:38:27Z</time>
      </trkpt>
      <trkpt lat="46.09052" lon="3.48389">
        <ele>405.22</ele>
        <time>2014-06-21T16:38:42Z</time>
      </trkpt>
      <trkpt lat="46.09119" lon="3.48342">
        <ele>399.85</ele>
        <time>2014-06-21T16:38:53Z</time>
      </trkpt>
      <trkpt lat="46.09192" lon="3.4831">
        <ele>395.84</ele>
        <time>2014-06-21T16:39:04Z</time>
      </trkpt>
      <trkpt lat="46.09252" lon="3.48239">
        <ele>397.98</ele>
        <time>2014-06-21T16:39:13Z</time>
      </trkpt>
      <trkpt lat="46.09306" lon="3.48157">
        <ele>394.59</ele>
        <time>2014-06-21T16:39:25Z</time>
      </trkpt>
      <trkpt lat="46.09374" lon="3.48099">
        <ele>391.95</ele>
        <time>2014-06-21T16:39:35Z</time>
      </trkpt>
      <trkpt lat="46.09427" lon="3.48024">
        <ele>396.58</ele>
        <time>2014-06-21T16:39:51Z</time>
      </trkpt>
      <trkpt lat="46.09489" lon="3.4796">
        <ele>394.55</ele>
        <time>2014-06-21T16:40:04Z</time>
      </trkpt>
      <trkpt lat="46.09562" lon="3.47934">
        <ele>397.29</ele>
        <time>2014-06-21T16:40:18Z</time>
      </trkpt>
      <trkpt lat="46.09636" lon="3.47928">
        <ele>391.23</ele>
        <time>2014-06-21T16:40:30Z</time>
      </trkpt>
      <trkpt lat="46.0971" lon="3.47898">
        <ele>387.81</ele>
        <time>2014-06-21T16:40:46Z</time>
      </trkpt>
      <trkpt lat="46.09769" lon="3.47833">
        <ele>384.87</ele>
        <time>2014-06-21T16:41:00Z</time>
      </trkpt>
      <trkpt lat="46.09826" lon="3.47762">
        <ele>380.62</ele>
        <time>2014-06-21T16:41:16Z</time>
      </trkpt>
      <trkpt lat="46.09879" lon="3.47683">
        <ele>379.09</ele>
        <time>2014-06-21T16:41:32Z</time>
      </trkpt>
      <trkpt lat="46.09931" lon="3.47606">
        <ele>383.55</ele>
        <time>2014-06-21T16:41:51Z</time>
      </trkpt>
      <trkpt lat="46.10004" lon="3.47599">
        <ele>391.49</ele>
        <time>2014-06-21T16:42:12Z</time>
      </trkpt>
      <trkpt lat="46.10072" lon="3.47563">
        <ele>395.55</ele>
        <time>2014-06-21T16:42:26Z</time>
      </trkpt>
      <trkpt lat="46.10121" lon="3.47481">
        <ele>396.67</ele>
        <time>2014-06-21T16:42:43Z</time>
      </trkpt>
      <trkpt lat="46.10142" lon="3.4738">
        <ele>393.57</ele>
        <time>2014-06-21T16:42:59Z</time>
      </trkpt>
      <trkpt lat="46.10181" lon="3.47292">
        <ele>391.61</ele>
        <time>2014-06-21T16:43:12Z</time>
      </trkpt>
      <trkpt lat="46.10225" lon="3.47204">
        <ele>392.55</ele>
        <time>2014-06-21T16:43:26Z</time>
      </trkpt>
      <trkpt lat="46.10275" lon="3.47123">
        <ele>393.55</ele>
        <time>2014-06-21T16:43:40Z</time>
      </trkpt>
      <trkpt lat="46.10337" lon="3.47069">
        <ele>392.55</ele>
        <time>2014-06-21T16:43:59Z</time>
      </trkpt>
      <trkpt lat="46.10309" lon="3.46973">
        <ele>392.55</ele>
        <time>2014-06-21T16:44:35Z</time>
      </trkpt>
      <trkpt lat="46.10372" lon="3.46921">
        <ele>400.07</ele>
        <time>2014-06-21T16:45:11Z</time>
      </trkpt>
      <trkpt lat="46.10443" lon="3.46887">
        <ele>406.02</ele>
        <time>2014-06-21T16:45:30Z</time>
      </trkpt>
      <trkpt lat="46.10516" lon="3.46865">
        <ele>408.54</ele>
        <time>2014-06-21T16:45:47Z</time>
      </trkpt>
      <trkpt lat="46.10585" lon="3.46827">
        <ele>407.06</ele>
        <time>2014-06-21T16:46:01Z</time>
      </trkpt>
      <trkpt lat="46.1066" lon="3.46803">
        <ele>408.05</ele>
        <time>2014-06-21T16:46:17Z</time>
      </trkpt>
      <trkpt lat="46.10718" lon="3.46741">
        <ele>409.55</ele>
        <time>2014-06-21T16:46:30Z</time>
      </trkpt>
      <trkpt lat="46.10762" lon="3.46657">
        <ele>409.3</ele>
        <time>2014-06-21T16:46:45Z</time>
      </trkpt>
      <trkpt lat="46.10782" lon="3.46556">
        <ele>412.55</ele>
        <time>2014-06-21T16:47:02Z</time>
      </trkpt>
      <trkpt lat="46.10843" lon="3.4649">
        <ele>413.79</ele>
        <time>2014-06-21T16:47:21Z</time>
      </trkpt>
      <trkpt lat="46.10915" lon="3.46475">
        <ele>410.59</ele>
        <time>2014-06-21T16:47:34Z</time>
      </trkpt>
      <trkpt lat="46.10994" lon="3.46464">
        <ele>409.55</ele>
        <time>2014-06-21T16:47:44Z</time>
      </trkpt>
      <trkpt lat="46.11068" lon="3.46464">
        <ele>409.05</ele>
        <time>2014-06-21T16:47:55Z</time>
      </trkpt>
      <trkpt lat="46.11141" lon="3.46477">
        <ele>410.05</ele>
        <time>2014-06-21T16:48:09Z</time>
      </trkpt>
      <trkpt lat="46.11215" lon="3.46471">
        <ele>410.68</ele>
        <time>2014-06-21T16:48:28Z</time>
      </trkpt>
      <trkpt lat="46.1129" lon="3.46471">
        <ele>400.85</ele>
        <time>2014-06-21T16:48:42Z</time>
      </trkpt>
      <trkpt lat="46.11363" lon="3.46477">
        <ele>400.55</ele>
        <time>2014-06-21T16:48:57Z</time>
      </trkpt>
      <trkpt lat="46.11434" lon="3.46516">
        <ele>401.17</ele>
        <time>2014-06-21T16:49:12Z</time>
      </trkpt>
      <trkpt lat="46.11504" lon="3.46486">
        <ele>396.26</ele>
        <time>2014-06-21T16:49:23Z</time>
      </trkpt>
      <trkpt lat="46.11562" lon="3.46417">
        <ele>392.12</ele>
        <time>2014-06-21T16:49:35Z</time>
      </trkpt>
      <trkpt lat="46.11621" lon="3.46357">
        <ele>389.57</ele>
        <time>2014-06-21T16:49:46Z</time>
      </trkpt>
      <trkpt lat="46.11699" lon="3.4634">
        <ele>386.22</ele>
        <time>2014-06-21T16:49:58Z</time>
      </trkpt>
      <trkpt lat="46.11773" lon="3.46325">
        <ele>381.9</ele>
        <time>2014-06-21T16:50:13Z</time>
      </trkpt>
      <trkpt lat="46.11848" lon="3.46292">
        <ele>374.89</ele>
        <time>2014-06-21T16:50:26Z</time>
      </trkpt>
      <trkpt lat="46.11921" lon="3.46254">
        <ele>371.62</ele>
        <time>2014-06-21T16:50:38Z</time>
      </trkpt>
      <trkpt lat="46.11992" lon="3.46215">
        <ele>367.82</ele>
        <time>2014-06-21T16:50:52Z</time>
      </trkpt>
      <trkpt lat="46.12065" lon="3.46202">
        <ele>363.62</ele>
        <time>2014-06-21T16:51:05Z</time>
      </trkpt>
      <trkpt lat="46.12137" lon="3.46207">
        <ele>365.49</ele>
        <time>2014-06-21T16:51:17Z</time>
      </trkpt>
      <trkpt lat="46.12198" lon="3.46269">
        <ele>364.55</ele>
        <time>2014-06-21T16:51:37Z</time>
      </trkpt>
      <trkpt lat="46.12272" lon="3.46256">
        <ele>362.06</ele>
        <time>2014-06-21T16:51:52Z</time>
      </trkpt>
      <trkpt lat="46.12332" lon="3.46194">
        <ele>353.65</ele>
        <time>2014-06-21T16:52:04Z</time>
      </trkpt>
      <trkpt lat="46.12391" lon="3.46132">
        <ele>352.05</ele>
        <time>2014-06-21T16:52:16Z</time>
      </trkpt>
      <trkpt lat="46.12466" lon="3.46112">
        <ele>349.57</ele>
        <time>2014-06-21T16:52:31Z</time>
      </trkpt>
      <trkpt lat="46.12533" lon="3.46063">
        <ele>347.58</ele>
        <time>2014-06-21T16:52:45Z</time>
      </trkpt>
      <trkpt lat="46.12596" lon="3.46005">
        <ele>349.42</ele>
        <time>2014-06-21T16:53:11Z</time>
      </trkpt>
      <trkpt lat="46.12666" lon="3.45973">
        <ele>350.55</ele>
        <time>2014-06-21T16:53:39Z</time>
      </trkpt>
      <trkpt lat="46.12736" lon="3.45932">
        <ele>346.3</ele>
        <time>2014-06-21T16:53:57Z</time>
      </trkpt>
      <trkpt lat="46.1281" lon="3.45902">
        <ele>337.56</ele>
        <time>2014-06-21T16:54:17Z</time>
      </trkpt>
      <trkpt lat="46.12879" lon="3.45868">
        <ele>300.64</ele>
        <time>2014-06-21T16:54:34Z</time>
      </trkpt>
      <trkpt lat="46.12936" lon="3.45936">
        <ele>302.22</ele>
        <time>2014-06-21T16:54:53Z</time>
      </trkpt>
      <trkpt lat="46.13011" lon="3.45949">
        <ele>311.18</ele>
        <time>2014-06-21T16:55:17Z</time>
      </trkpt>
      <trkpt lat="46.13082" lon="3.45919">
        <ele>309.99</ele>
        <time>2014-06-21T16:55:36Z</time>
      </trkpt>
      <trkpt lat="46.13155" lon="3.459">
        <ele>308.55</ele>
        <time>2014-06-21T16:56:10Z</time>
      </trkpt>
      <trkpt lat="46.13225" lon="3.4593">
        <ele>307.55</ele>
        <time>2014-06-21T16:56:25Z</time>
      </trkpt>
      <trkpt lat="46.13298" lon="3.45956">
        <ele>307.16</ele>
        <time>2014-06-21T16:56:40Z</time>
      </trkpt>
      <trkpt lat="46.13352" lon="3.45881">
        <ele>299.18</ele>
        <time>2014-06-21T16:56:58Z</time>
      </trkpt>
      <trkpt lat="46.13397" lon="3.45797">
        <ele>295.8</ele>
        <time>2014-06-21T16:57:14Z</time>
      </trkpt>
      <trkpt lat="46.13452" lon="3.45726">
        <ele>292.55</ele>
        <time>2014-06-21T16:57:35Z</time>
      </trkpt>
      <trkpt lat="46.1349" lon="3.45632">
        <ele>290.68</ele>
        <time>2014-06-21T16:57:52Z</time>
      </trkpt>
      <trkpt lat="46.13538" lon="3.45554">
        <ele>290.55</ele>
        <time>2014-06-21T16:58:12Z</time>
      </trkpt>
      <trkpt lat="46.13612" lon="3.45574">
        <ele>293.49</ele>
        <time>2014-06-21T16:58:25Z</time>
      </trkpt>
      <trkpt lat="46.13653" lon="3.45488">
        <ele>291.56</ele>
        <time>2014-06-21T16:58:43Z</time>
      </trkpt>
      <trkpt lat="46.13685" lon="3.45391">
        <ele>286.26</ele>
        <time>2014-06-21T16:58:57Z</time>
      </trkpt>
      <trkpt lat="46.13759" lon="3.45387">
        <ele>276.57</ele>
        <time>2014-06-21T16:59:23Z</time>
      </trkpt>
      <trkpt lat="46.13828" lon="3.45421">
        <ele>277.55</ele>
        <time>2014-06-21T16:59:45Z</time>
      </trkpt>
      <trkpt lat="46.13845" lon="3.45314">
        <ele>278.02</ele>
        <time>2014-06-21T17:00:01Z</time>
      </trkpt>
      <trkpt lat="46.13859" lon="3.45207">
        <ele>273.55</ele>
        <time>2014-06-21T17:00:17Z</time>
      </trkpt>
      <trkpt lat="46.13874" lon="3.45099">
        <ele>272.55</ele>
        <time>2014-06-21T17:00:33Z</time>
      </trkpt>
      <trkpt lat="46.13882" lon="3.4499">
        <ele>273.55</ele>
        <time>2014-06-21T17:00:50Z</time>
      </trkpt>
      <trkpt lat="46.13954" lon="3.44966">
        <ele>279.85</ele>
        <time>2014-06-21T17:01:07Z</time>
      </trkpt>
      <trkpt lat="46.14026" lon="3.44971">
        <ele>282.55</ele>
        <time>2014-06-21T17:01:25Z</time>
      </trkpt>
      <trkpt lat="46.14095" lon="3.44934">
        <ele>282.55</ele>
        <time>2014-06-21T17:01:45Z</time>
      </trkpt>
      <trkpt lat="46.14168" lon="3.44928">
        <ele>282.55</ele>
        <time>2014-06-21T17:02:08Z</time>
      </trkpt>
      <trkpt lat="46.1424" lon="3.44921">
        <ele>283.55</ele>
        <time>2014-06-21T17:02:35Z</time>
      </trkpt>
      <trkpt lat="46.14314" lon="3.44934">
        <ele>283.55</ele>
        <time>2014-06-21T17:03:03Z</time>
      </trkpt>
      <trkpt lat="46.1436" lon="3.44853">
        <ele>284.55</ele>
        <time>2014-06-21T17:03:34Z</time>
      </trkpt>
      <trkpt lat="46.14393" lon="3.44756">
        <ele>285.55</ele>
        <time>2014-06-21T17:04:02Z</time>
      </trkpt>
      <trkpt lat="46.14454" lon="3.447">
        <ele>288.54</ele>
        <time>2014-06-21T17:04:30Z</time>
      </trkpt>
      <trkpt lat="46.14523" lon="3.44662">
        <ele>294.49</ele>
        <time>2014-06-21T17:04:58Z</time>
      </trkpt>
      <trkpt lat="46.14576" lon="3.44587">
        <ele>303.78</ele>
        <time>2014-06-21T17:05:21Z</time>
      </trkpt>
      <trkpt lat="46.14634" lon="3.44518">
        <ele>307.49</ele>
        <time>2014-06-21T17:05:35Z</time>
      </trkpt>
      <trkpt lat="46.14684" lon="3.44436">
        <ele>307.62</ele>
        <time>2014-06-21T17:05:50Z</time>
      </trkpt>
      <trkpt lat="46.14721" lon="3.44344">
        <ele>308.42</ele>
        <time>2014-06-21T17:06:05Z</time>
      </trkpt>
      <trkpt lat="46.1478" lon="3.44282">
        <ele>308.55</ele>
        <time>2014-06-21T17:06:23Z</time>
      </trkpt>
      <trkpt lat="46.14843" lon="3.44222">
        <ele>310.55</ele>
        <time>2014-06-21T17:06:45Z</time>
      </trkpt>
      <trkpt lat="46.14906" lon="3.44168">
        <ele>311.55</ele>
        <time>2014-06-21T17:07:03Z</time>
      </trkpt>
      <trkpt lat="46.14976" lon="3.44136">
        <ele>314.55</ele>
        <time>2014-06-21T17:07:21Z</time>
      </trkpt>
      <trkpt lat="46.15045" lon="3.4411">
        <ele>315.55</ele>
        <time>2014-06-21T17:07:40Z</time>
      </trkpt>
      <trkpt lat="46.15115" lon="3.44076">
        <ele>317.55</ele>
        <time>2014-06-21T17:07:56Z</time>
      </trkpt>
      <trkpt lat="46.15179" lon="3.44027">
        <ele>316.55</ele>
        <time>2014-06-21T17:08:11Z</time>
      </trkpt>
      <trkpt lat="46.15252" lon="3.44046">
        <ele>320.54</ele>
        <time>2014-06-21T17:08:31Z</time>
      </trkpt>
      <trkpt lat="46.15325" lon="3.44048">
        <ele>320.55</ele>
        <time>2014-06-21T17:08:58Z</time>
      </trkpt>
      <trkpt lat="46.15399" lon="3.44035">
        <ele>320.55</ele>
        <time>2014-06-21T17:09:24Z</time>
      </trkpt>
      <trkpt lat="46.1547" lon="3.44005">
        <ele>320.55</ele>
        <time>2014-06-21T17:09:50Z</time>
      </trkpt>
      <trkpt lat="46.15542" lon="3.43986">
        <ele>323.55</ele>
        <time>2014-06-21T17:10:22Z</time>
      </trkpt>
      <trkpt lat="46.15614" lon="3.43994">
        <ele>327.49</ele>
        <time>2014-06-21T17:10:45Z</time>
      </trkpt>
      <trkpt lat="46.15686" lon="3.44009">
        <ele>332.04</ele>
        <time>2014-06-21T17:11:09Z</time>
      </trkpt>
      <trkpt lat="46.15752" lon="3.4405">
        <ele>336.3</ele>
        <time>2014-06-21T17:11:34Z</time>
      </trkpt>
      <trkpt lat="46.15821" lon="3.44082">
        <ele>339.55</ele>
        <time>2014-06-21T17:12:02Z</time>
      </trkpt>
      <trkpt lat="46.15891" lon="3.4405">
        <ele>342.52</ele>
        <time>2014-06-21T17:12:30Z</time>
      </trkpt>
      <trkpt lat="46.15918" lon="3.43954">
        <ele>348.3</ele>
        <time>2014-06-21T17:13:15Z</time>
      </trkpt>
      <trkpt lat="46.15944" lon="3.43853">
        <ele>362.26</ele>
        <time>2014-06-21T17:14:13Z</time>
      </trkpt>
      <trkpt lat="46.16001" lon="3.43786">
        <ele>372.02</ele>
        <time>2014-06-21T17:14:44Z</time>
      </trkpt>
      <trkpt lat="46.16053" lon="3.43711">
        <ele>379.79</ele>
        <time>2014-06-21T17:15:07Z</time>
      </trkpt>
      <trkpt lat="46.16128" lon="3.43698">
        <ele>387.55</ele>
        <time>2014-06-21T17:15:22Z</time>
      </trkpt>
      <trkpt lat="46.162" lon="3.43705">
        <ele>387.05</ele>
        <time>2014-06-21T17:15:30Z</time>
      </trkpt>
      <trkpt lat="46.16273" lon="3.43703">
        <ele>380.43</ele>
        <time>2014-06-21T17:15:38Z</time>
      </trkpt>
      <trkpt lat="46.16333" lon="3.43645">
        <ele>374.36</ele>
        <time>2014-06-21T17:15:46Z</time>
      </trkpt>
      <trkpt lat="46.16397" lon="3.4358">
        <ele>361.53</ele>
        <time>2014-06-21T17:15:54Z</time>
      </trkpt>
      <trkpt lat="46.1647" lon="3.43576">
        <ele>352.65</ele>
        <time>2014-06-21T17:16:04Z</time>
      </trkpt>
      <trkpt lat="46.16545" lon="3.43595">
        <ele>350.63</ele>
        <time>2014-06-21T17:16:16Z</time>
      </trkpt>
      <trkpt lat="46.16621" lon="3.43597">
        <ele>347.81</ele>
        <time>2014-06-21T17:16:29Z</time>
      </trkpt>
      <trkpt lat="46.16696" lon="3.43587">
        <ele>343.87</ele>
        <time>2014-06-21T17:16:40Z</time>
      </trkpt>
      <trkpt lat="46.16771" lon="3.43619">
        <ele>341.07</ele>
        <time>2014-06-21T17:16:53Z</time>
      </trkpt>
      <trkpt lat="46.16842" lon="3.4361">
        <ele>337.82</ele>
        <time>2014-06-21T17:17:08Z</time>
      </trkpt>
      <trkpt lat="46.16905" lon="3.43552">
        <ele>335.56</ele>
        <time>2014-06-21T17:17:19Z</time>
      </trkpt>
      <trkpt lat="46.16979" lon="3.43557">
        <ele>334.68</ele>
        <time>2014-06-21T17:17:27Z</time>
      </trkpt>
      <trkpt lat="46.17042" lon="3.43627">
        <ele>334.55</ele>
        <time>2014-06-21T17:17:35Z</time>
      </trkpt>
      <trkpt lat="46.17119" lon="3.43645">
        <ele>331.4</ele>
        <time>2014-06-21T17:17:43Z</time>
      </trkpt>
      <trkpt lat="46.17193" lon="3.4361">
        <ele>326.82</ele>
        <time>2014-06-21T17:17:53Z</time>
      </trkpt>
      <trkpt lat="46.17258" lon="3.43548">
        <ele>327.43</ele>
        <time>2014-06-21T17:18:04Z</time>
      </trkpt>
      <trkpt lat="46.17246" lon="3.43443">
        <ele>326.55</ele>
        <time>2014-06-21T17:18:34Z</time>
      </trkpt>
      <trkpt lat="46.17221" lon="3.43342">
        <ele>327.55</ele>
        <time>2014-06-21T17:19:19Z</time>
      </trkpt>
      <trkpt lat="46.17229" lon="3.43235">
        <ele>330.05</ele>
        <time>2014-06-21T17:19:46Z</time>
      </trkpt>
      <trkpt lat="46.17158" lon="3.4319">
        <ele>330.05</ele>
        <time>2014-06-21T17:19:55Z</time>
      </trkpt>
      <trkpt lat="46.17091" lon="3.43143">
        <ele>328.62</ele>
        <time>2014-06-21T17:20:01Z</time>
      </trkpt>
      <trkpt lat="46.17018" lon="3.4313">
        <ele>321.55</ele>
        <time>2014-06-21T17:22:44Z</time>
      </trkpt>
    </trkseg>
  </trk>
</gpx>